<?xml version="1.0" encoding="utf-8"?>
<gpx xmlns:xsi="http://www.w3.org/2001/XMLSchema-instance" xmlns:xsd="http://www.w3.org/2001/XMLSchema" version="1.1" creator="Shapelink.com" xmlns="http://www.topografix.com/GPX/1/1" xmlns:gpxtpx="http://www.garmin.com/xmlschemas/TrackPointExtension/v1">
  <metadata>
    <name>Cycling 42.60 km, 2020-06-13</name>
    <desc></desc>
    <author><name>Marian Moron</name></author> 
    <time>2020-06-13T09:44:18Z</time>
  </metadata>
  <trk>
    <name>Cycling 42.60 km, 2020-06-13</name>
    <trkseg>
      <trkpt lat="51.229466122011" lon="4.449988763826">
        <ele>0</ele>
        <time>2020-06-13T09:44:18Z</time>
      </trkpt>
      <trkpt lat="51.229638370056" lon="4.450824020161">
        <ele>0</ele>
        <time>2020-06-13T09:44:30Z</time>
      </trkpt>
      <trkpt lat="51.229777677234" lon="4.451509911038">
        <ele>0</ele>
        <time>2020-06-13T09:44:41Z</time>
      </trkpt>
      <trkpt lat="51.229833081593" lon="4.451598172445">
        <ele>0</ele>
        <time>2020-06-13T09:44:43Z</time>
      </trkpt>
      <trkpt lat="51.22991715205" lon="4.451607895449">
        <ele>0</ele>
        <time>2020-06-13T09:44:45Z</time>
      </trkpt>
      <trkpt lat="51.230402799336" lon="4.451423493649">
        <ele>0</ele>
        <time>2020-06-13T09:44:56Z</time>
      </trkpt>
      <trkpt lat="51.230483014119" lon="4.45146280476">
        <ele>0</ele>
        <time>2020-06-13T09:44:58Z</time>
      </trkpt>
      <trkpt lat="51.230528108741" lon="4.451575876591">
        <ele>0</ele>
        <time>2020-06-13T09:45:00Z</time>
      </trkpt>
      <trkpt lat="51.230741511915" lon="4.452441559223">
        <ele>0</ele>
        <time>2020-06-13T09:45:12Z</time>
      </trkpt>
      <trkpt lat="51.230908395544" lon="4.453282179974">
        <ele>0</ele>
        <time>2020-06-13T09:45:23Z</time>
      </trkpt>
      <trkpt lat="51.231059688839" lon="4.454111568979">
        <ele>0</ele>
        <time>2020-06-13T09:45:34Z</time>
      </trkpt>
      <trkpt lat="51.23107301606" lon="4.454176193428">
        <ele>0</ele>
        <time>2020-06-13T09:45:35Z</time>
      </trkpt>
      <trkpt lat="51.231592945317" lon="4.454036550974">
        <ele>0</ele>
        <time>2020-06-13T09:45:50Z</time>
      </trkpt>
      <trkpt lat="51.231740718214" lon="4.45396228734">
        <ele>0</ele>
        <time>2020-06-13T09:45:54Z</time>
      </trkpt>
      <trkpt lat="51.232006089168" lon="4.453924401152">
        <ele>0</ele>
        <time>2020-06-13T09:46:15Z</time>
      </trkpt>
      <trkpt lat="51.232067779952" lon="4.453730779262">
        <ele>0</ele>
        <time>2020-06-13T09:46:19Z</time>
      </trkpt>
      <trkpt lat="51.232588547399" lon="4.453491392198">
        <ele>0</ele>
        <time>2020-06-13T09:46:32Z</time>
      </trkpt>
      <trkpt lat="51.233109231027" lon="4.453252256591">
        <ele>0</ele>
        <time>2020-06-13T09:46:43Z</time>
      </trkpt>
      <trkpt lat="51.233528745122" lon="4.453037512313">
        <ele>0.2</ele>
        <time>2020-06-13T09:46:51Z</time>
      </trkpt>
      <trkpt lat="51.233616168339" lon="4.453109177558">
        <ele>0.6</ele>
        <time>2020-06-13T09:46:53Z</time>
      </trkpt>
      <trkpt lat="51.233667800843" lon="4.453273378979">
        <ele>0.4</ele>
        <time>2020-06-13T09:46:55Z</time>
      </trkpt>
      <trkpt lat="51.233718259881" lon="4.454171751021">
        <ele>0</ele>
        <time>2020-06-13T09:47:05Z</time>
      </trkpt>
      <trkpt lat="51.233749272911" lon="4.455093508564">
        <ele>0</ele>
        <time>2020-06-13T09:47:17Z</time>
      </trkpt>
      <trkpt lat="51.233793529343" lon="4.455990036588">
        <ele>0</ele>
        <time>2020-06-13T09:47:33Z</time>
      </trkpt>
      <trkpt lat="51.233710548533" lon="4.456702749545">
        <ele>0</ele>
        <time>2020-06-13T09:47:46Z</time>
      </trkpt>
      <trkpt lat="51.233197408615" lon="4.457071888421">
        <ele>0</ele>
        <time>2020-06-13T09:48:00Z</time>
      </trkpt>
      <trkpt lat="51.233183829937" lon="4.457108265867">
        <ele>0</ele>
        <time>2020-06-13T09:48:01Z</time>
      </trkpt>
      <trkpt lat="51.233596051779" lon="4.457272551107">
        <ele>0</ele>
        <time>2020-06-13T09:48:39Z</time>
      </trkpt>
      <trkpt lat="51.23409888196" lon="4.45686661569">
        <ele>0</ele>
        <time>2020-06-13T09:48:49Z</time>
      </trkpt>
      <trkpt lat="51.234600873951" lon="4.456491022751">
        <ele>0</ele>
        <time>2020-06-13T09:48:59Z</time>
      </trkpt>
      <trkpt lat="51.23507788788" lon="4.456076873072">
        <ele>0</ele>
        <time>2020-06-13T09:49:10Z</time>
      </trkpt>
      <trkpt lat="51.235564792451" lon="4.455700274305">
        <ele>0</ele>
        <time>2020-06-13T09:49:22Z</time>
      </trkpt>
      <trkpt lat="51.235825637179" lon="4.455498270515">
        <ele>0.2</ele>
        <time>2020-06-13T09:49:29Z</time>
      </trkpt>
      <trkpt lat="51.236343890056" lon="4.455140950118">
        <ele>2.2</ele>
        <time>2020-06-13T09:49:45Z</time>
      </trkpt>
      <trkpt lat="51.23683724869" lon="4.454770218681">
        <ele>4.2</ele>
        <time>2020-06-13T09:49:58Z</time>
      </trkpt>
      <trkpt lat="51.237344605097" lon="4.454432344292">
        <ele>5.4</ele>
        <time>2020-06-13T09:50:11Z</time>
      </trkpt>
      <trkpt lat="51.237891021158" lon="4.454075359171">
        <ele>4.2</ele>
        <time>2020-06-13T09:50:23Z</time>
      </trkpt>
      <trkpt lat="51.238167707677" lon="4.453881653462">
        <ele>4.2</ele>
        <time>2020-06-13T09:50:28Z</time>
      </trkpt>
      <trkpt lat="51.23866869384" lon="4.453564733823">
        <ele>2.2</ele>
        <time>2020-06-13T09:50:36Z</time>
      </trkpt>
      <trkpt lat="51.239226844561" lon="4.453150416506">
        <ele>0</ele>
        <time>2020-06-13T09:50:44Z</time>
      </trkpt>
      <trkpt lat="51.239741074126" lon="4.452776667585">
        <ele>0</ele>
        <time>2020-06-13T09:50:51Z</time>
      </trkpt>
      <trkpt lat="51.240229990353" lon="4.452408534537">
        <ele>0</ele>
        <time>2020-06-13T09:50:58Z</time>
      </trkpt>
      <trkpt lat="51.240752266542" lon="4.452045598267">
        <ele>0</ele>
        <time>2020-06-13T09:51:06Z</time>
      </trkpt>
      <trkpt lat="51.241250654316" lon="4.451676040296">
        <ele>0</ele>
        <time>2020-06-13T09:51:14Z</time>
      </trkpt>
      <trkpt lat="51.24174652752" lon="4.45132198884">
        <ele>0</ele>
        <time>2020-06-13T09:51:23Z</time>
      </trkpt>
      <trkpt lat="51.242152127661" lon="4.451032561833">
        <ele>0</ele>
        <time>2020-06-13T09:51:36Z</time>
      </trkpt>
      <trkpt lat="51.24265764005" lon="4.450640121275">
        <ele>0</ele>
        <time>2020-06-13T09:51:46Z</time>
      </trkpt>
      <trkpt lat="51.243167594846" lon="4.450268719286">
        <ele>0</ele>
        <time>2020-06-13T09:51:57Z</time>
      </trkpt>
      <trkpt lat="51.243661875489" lon="4.449898574582">
        <ele>1</ele>
        <time>2020-06-13T09:52:08Z</time>
      </trkpt>
      <trkpt lat="51.244167723154" lon="4.449596323268">
        <ele>0</ele>
        <time>2020-06-13T09:52:19Z</time>
      </trkpt>
      <trkpt lat="51.244678180864" lon="4.449228357858">
        <ele>0</ele>
        <time>2020-06-13T09:52:30Z</time>
      </trkpt>
      <trkpt lat="51.245192997162" lon="4.448894842057">
        <ele>2.4</ele>
        <time>2020-06-13T09:52:41Z</time>
      </trkpt>
      <trkpt lat="51.245704293062" lon="4.448560404247">
        <ele>4</ele>
        <time>2020-06-13T09:52:52Z</time>
      </trkpt>
      <trkpt lat="51.245747292209" lon="4.448552273804">
        <ele>4.6</ele>
        <time>2020-06-13T09:52:53Z</time>
      </trkpt>
      <trkpt lat="51.245819963282" lon="4.448639613202">
        <ele>6.4</ele>
        <time>2020-06-13T09:52:55Z</time>
      </trkpt>
      <trkpt lat="51.246140906233" lon="4.449356936204">
        <ele>7</ele>
        <time>2020-06-13T09:53:05Z</time>
      </trkpt>
      <trkpt lat="51.246176026394" lon="4.449422231205">
        <ele>7.2</ele>
        <time>2020-06-13T09:53:06Z</time>
      </trkpt>
      <trkpt lat="51.246283901447" lon="4.449599089295">
        <ele>8.2</ele>
        <time>2020-06-13T09:53:09Z</time>
      </trkpt>
      <trkpt lat="51.246562096708" lon="4.45034549749">
        <ele>3.8</ele>
        <time>2020-06-13T09:53:19Z</time>
      </trkpt>
      <trkpt lat="51.246882452926" lon="4.451037507154">
        <ele>2.2</ele>
        <time>2020-06-13T09:53:29Z</time>
      </trkpt>
      <trkpt lat="51.247173975408" lon="4.45178718429">
        <ele>1</ele>
        <time>2020-06-13T09:53:40Z</time>
      </trkpt>
      <trkpt lat="51.247483602794" lon="4.452496544487">
        <ele>0</ele>
        <time>2020-06-13T09:53:51Z</time>
      </trkpt>
      <trkpt lat="51.24779071561" lon="4.453207161969">
        <ele>0</ele>
        <time>2020-06-13T09:54:02Z</time>
      </trkpt>
      <trkpt lat="51.248133954415" lon="4.45363287867">
        <ele>0</ele>
        <time>2020-06-13T09:54:21Z</time>
      </trkpt>
      <trkpt lat="51.248463195447" lon="4.453940578219">
        <ele>0</ele>
        <time>2020-06-13T09:54:29Z</time>
      </trkpt>
      <trkpt lat="51.24893065401" lon="4.454379454503">
        <ele>0</ele>
        <time>2020-06-13T09:54:39Z</time>
      </trkpt>
      <trkpt lat="51.249421917169" lon="4.454794274734">
        <ele>1.2</ele>
        <time>2020-06-13T09:54:49Z</time>
      </trkpt>
      <trkpt lat="51.24992390916" lon="4.455233151018">
        <ele>1</ele>
        <time>2020-06-13T09:55:00Z</time>
      </trkpt>
      <trkpt lat="51.250390194257" lon="4.455668171628">
        <ele>0.6</ele>
        <time>2020-06-13T09:55:10Z</time>
      </trkpt>
      <trkpt lat="51.250888079117" lon="4.456139150589">
        <ele>0</ele>
        <time>2020-06-13T09:55:21Z</time>
      </trkpt>
      <trkpt lat="51.251342210459" lon="4.456610716283">
        <ele>0</ele>
        <time>2020-06-13T09:55:32Z</time>
      </trkpt>
      <trkpt lat="51.251833222161" lon="4.457074235353">
        <ele>0</ele>
        <time>2020-06-13T09:55:43Z</time>
      </trkpt>
      <trkpt lat="51.252320545827" lon="4.457540771907">
        <ele>0</ele>
        <time>2020-06-13T09:55:54Z</time>
      </trkpt>
      <trkpt lat="51.252722877027" lon="4.457906977118">
        <ele>0</ele>
        <time>2020-06-13T09:56:03Z</time>
      </trkpt>
      <trkpt lat="51.2532146431" lon="4.458337806778">
        <ele>0</ele>
        <time>2020-06-13T09:56:14Z</time>
      </trkpt>
      <trkpt lat="51.253703056413" lon="4.458802666952">
        <ele>3</ele>
        <time>2020-06-13T09:56:25Z</time>
      </trkpt>
      <trkpt lat="51.253743457171" lon="4.458839882588">
        <ele>2.4</ele>
        <time>2020-06-13T09:56:26Z</time>
      </trkpt>
      <trkpt lat="51.253962895313" lon="4.459064601327">
        <ele>0.6</ele>
        <time>2020-06-13T09:56:32Z</time>
      </trkpt>
      <trkpt lat="51.254012516161" lon="4.459180606823">
        <ele>0</ele>
        <time>2020-06-13T09:56:34Z</time>
      </trkpt>
      <trkpt lat="51.254040176431" lon="4.459321171286">
        <ele>0</ele>
        <time>2020-06-13T09:56:36Z</time>
      </trkpt>
      <trkpt lat="51.254043361553" lon="4.459472967495">
        <ele>0</ele>
        <time>2020-06-13T09:56:38Z</time>
      </trkpt>
      <trkpt lat="51.253985023529" lon="4.460386426957">
        <ele>0</ele>
        <time>2020-06-13T09:56:50Z</time>
      </trkpt>
      <trkpt lat="51.254010504505" lon="4.460823207766">
        <ele>0</ele>
        <time>2020-06-13T09:56:58Z</time>
      </trkpt>
      <trkpt lat="51.254094072048" lon="4.460802839749">
        <ele>0</ele>
        <time>2020-06-13T09:57:00Z</time>
      </trkpt>
      <trkpt lat="51.254170598795" lon="4.460621790709">
        <ele>0</ele>
        <time>2020-06-13T09:57:03Z</time>
      </trkpt>
      <trkpt lat="51.254245113886" lon="4.459686035393">
        <ele>0</ele>
        <time>2020-06-13T09:57:14Z</time>
      </trkpt>
      <trkpt lat="51.254254250157" lon="4.459597606348">
        <ele>0</ele>
        <time>2020-06-13T09:57:15Z</time>
      </trkpt>
      <trkpt lat="51.254316360036" lon="4.459459472636">
        <ele>0</ele>
        <time>2020-06-13T09:57:17Z</time>
      </trkpt>
      <trkpt lat="51.254423732175" lon="4.459456874247">
        <ele>0</ele>
        <time>2020-06-13T09:57:19Z</time>
      </trkpt>
      <trkpt lat="51.254898902086" lon="4.459940761334">
        <ele>0</ele>
        <time>2020-06-13T09:57:29Z</time>
      </trkpt>
      <trkpt lat="51.255391506349" lon="4.460380811084">
        <ele>0</ele>
        <time>2020-06-13T09:57:40Z</time>
      </trkpt>
      <trkpt lat="51.255895761453" lon="4.460847012362">
        <ele>0</ele>
        <time>2020-06-13T09:57:51Z</time>
      </trkpt>
      <trkpt lat="51.256384929137" lon="4.461293516175">
        <ele>0</ele>
        <time>2020-06-13T09:58:02Z</time>
      </trkpt>
      <trkpt lat="51.256887843137" lon="4.461759549815">
        <ele>0</ele>
        <time>2020-06-13T09:58:13Z</time>
      </trkpt>
      <trkpt lat="51.257388242567" lon="4.462230780233">
        <ele>0</ele>
        <time>2020-06-13T09:58:24Z</time>
      </trkpt>
      <trkpt lat="51.257542804803" lon="4.462393472912">
        <ele>0</ele>
        <time>2020-06-13T09:58:28Z</time>
      </trkpt>
      <trkpt lat="51.257585887769" lon="4.462527248036">
        <ele>0</ele>
        <time>2020-06-13T09:58:30Z</time>
      </trkpt>
      <trkpt lat="51.257650596037" lon="4.46261073176">
        <ele>0</ele>
        <time>2020-06-13T09:58:32Z</time>
      </trkpt>
      <trkpt lat="51.2577324872" lon="4.46261408452">
        <ele>0</ele>
        <time>2020-06-13T09:58:34Z</time>
      </trkpt>
      <trkpt lat="51.257823598453" lon="4.462622550239">
        <ele>0</ele>
        <time>2020-06-13T09:58:36Z</time>
      </trkpt>
      <trkpt lat="51.258323494969" lon="4.463061007428">
        <ele>0</ele>
        <time>2020-06-13T09:58:48Z</time>
      </trkpt>
      <trkpt lat="51.258441679759" lon="4.463196123656">
        <ele>0.2</ele>
        <time>2020-06-13T09:58:51Z</time>
      </trkpt>
      <trkpt lat="51.258893631807" lon="4.463734576912">
        <ele>1.4</ele>
        <time>2020-06-13T09:59:03Z</time>
      </trkpt>
      <trkpt lat="51.259408699562" lon="4.464143278356">
        <ele>0.8</ele>
        <time>2020-06-13T09:59:14Z</time>
      </trkpt>
      <trkpt lat="51.259453458908" lon="4.464171609178">
        <ele>0.8</ele>
        <time>2020-06-13T09:59:15Z</time>
      </trkpt>
      <trkpt lat="51.259542474686" lon="4.464221146207">
        <ele>0.4</ele>
        <time>2020-06-13T09:59:17Z</time>
      </trkpt>
      <trkpt lat="51.259623695297" lon="4.464279735688">
        <ele>0.4</ele>
        <time>2020-06-13T09:59:19Z</time>
      </trkpt>
      <trkpt lat="51.259761996647" lon="4.464254841445">
        <ele>0</ele>
        <time>2020-06-13T09:59:24Z</time>
      </trkpt>
      <trkpt lat="51.260096266819" lon="4.464249812305">
        <ele>0</ele>
        <time>2020-06-13T10:00:20Z</time>
      </trkpt>
      <trkpt lat="51.260679227964" lon="4.464208489538">
        <ele>0</ele>
        <time>2020-06-13T10:00:31Z</time>
      </trkpt>
      <trkpt lat="51.260989861178" lon="4.464212848126">
        <ele>0</ele>
        <time>2020-06-13T10:00:36Z</time>
      </trkpt>
      <trkpt lat="51.261575420712" lon="4.464101704132">
        <ele>0</ele>
        <time>2020-06-13T10:00:45Z</time>
      </trkpt>
      <trkpt lat="51.262130218673" lon="4.464015622019">
        <ele>0</ele>
        <time>2020-06-13T10:00:54Z</time>
      </trkpt>
      <trkpt lat="51.262679568399" lon="4.463915625952">
        <ele>0</ele>
        <time>2020-06-13T10:01:03Z</time>
      </trkpt>
      <trkpt lat="51.263232857618" lon="4.463811103659">
        <ele>0</ele>
        <time>2020-06-13T10:01:12Z</time>
      </trkpt>
      <trkpt lat="51.263925789291" lon="4.463677831449">
        <ele>0</ele>
        <time>2020-06-13T10:01:24Z</time>
      </trkpt>
      <trkpt lat="51.26447656394" lon="4.46356626836">
        <ele>0</ele>
        <time>2020-06-13T10:01:34Z</time>
      </trkpt>
      <trkpt lat="51.264939077182" lon="4.463496195676">
        <ele>0</ele>
        <time>2020-06-13T10:01:43Z</time>
      </trkpt>
      <trkpt lat="51.265032954462" lon="4.463514216761">
        <ele>0</ele>
        <time>2020-06-13T10:01:45Z</time>
      </trkpt>
      <trkpt lat="51.265121383507" lon="4.463508265612">
        <ele>0</ele>
        <time>2020-06-13T10:01:47Z</time>
      </trkpt>
      <trkpt lat="51.265492366401" lon="4.4633952776">
        <ele>0.2</ele>
        <time>2020-06-13T10:02:35Z</time>
      </trkpt>
      <trkpt lat="51.266066945646" lon="4.463306764736">
        <ele>0</ele>
        <time>2020-06-13T10:02:47Z</time>
      </trkpt>
      <trkpt lat="51.26663238862" lon="4.46320081752">
        <ele>0</ele>
        <time>2020-06-13T10:02:58Z</time>
      </trkpt>
      <trkpt lat="51.266724840977" lon="4.463148179188">
        <ele>0</ele>
        <time>2020-06-13T10:03:00Z</time>
      </trkpt>
      <trkpt lat="51.267302353887" lon="4.463202326262">
        <ele>0</ele>
        <time>2020-06-13T10:03:11Z</time>
      </trkpt>
      <trkpt lat="51.267461777625" lon="4.463255886603">
        <ele>0</ele>
        <time>2020-06-13T10:03:14Z</time>
      </trkpt>
      <trkpt lat="51.267562360425" lon="4.463330653151">
        <ele>0</ele>
        <time>2020-06-13T10:03:16Z</time>
      </trkpt>
      <trkpt lat="51.267927056894" lon="4.463780342086">
        <ele>0</ele>
        <time>2020-06-13T10:03:24Z</time>
      </trkpt>
      <trkpt lat="51.268000649976" lon="4.46391998454">
        <ele>0</ele>
        <time>2020-06-13T10:03:28Z</time>
      </trkpt>
      <trkpt lat="51.268117409843" lon="4.464084018323">
        <ele>0</ele>
        <time>2020-06-13T10:04:03Z</time>
      </trkpt>
      <trkpt lat="51.268419912614" lon="4.464430526069">
        <ele>0</ele>
        <time>2020-06-13T10:04:11Z</time>
      </trkpt>
      <trkpt lat="51.268830541895" lon="4.464895302424">
        <ele>0</ele>
        <time>2020-06-13T10:04:19Z</time>
      </trkpt>
      <trkpt lat="51.269305460349" lon="4.465435348241">
        <ele>0</ele>
        <time>2020-06-13T10:04:29Z</time>
      </trkpt>
      <trkpt lat="51.269765291383" lon="4.465956534783">
        <ele>0</ele>
        <time>2020-06-13T10:04:39Z</time>
      </trkpt>
      <trkpt lat="51.270232666127" lon="4.466498340799">
        <ele>0</ele>
        <time>2020-06-13T10:04:50Z</time>
      </trkpt>
      <trkpt lat="51.27070599202" lon="4.467023969748">
        <ele>0</ele>
        <time>2020-06-13T10:05:01Z</time>
      </trkpt>
      <trkpt lat="51.271150316539" lon="4.467564350841">
        <ele>0</ele>
        <time>2020-06-13T10:05:12Z</time>
      </trkpt>
      <trkpt lat="51.271593970506" lon="4.468102971735">
        <ele>0.6</ele>
        <time>2020-06-13T10:05:23Z</time>
      </trkpt>
      <trkpt lat="51.272045838735" lon="4.468618961499">
        <ele>0</ele>
        <time>2020-06-13T10:05:34Z</time>
      </trkpt>
      <trkpt lat="51.272507010873" lon="4.469161940981">
        <ele>0.8</ele>
        <time>2020-06-13T10:05:48Z</time>
      </trkpt>
      <trkpt lat="51.272952173582" lon="4.469692515251">
        <ele>2</ele>
        <time>2020-06-13T10:05:59Z</time>
      </trkpt>
      <trkpt lat="51.273410412055" lon="4.470210265214">
        <ele>2.2</ele>
        <time>2020-06-13T10:06:09Z</time>
      </trkpt>
      <trkpt lat="51.273851551452" lon="4.470723824227">
        <ele>0</ele>
        <time>2020-06-13T10:06:19Z</time>
      </trkpt>
      <trkpt lat="51.274296211247" lon="4.471255152868">
        <ele>0</ele>
        <time>2020-06-13T10:06:29Z</time>
      </trkpt>
      <trkpt lat="51.274775907384" lon="4.47180651425">
        <ele>0</ele>
        <time>2020-06-13T10:06:40Z</time>
      </trkpt>
      <trkpt lat="51.275241605748" lon="4.472343458764">
        <ele>0</ele>
        <time>2020-06-13T10:06:51Z</time>
      </trkpt>
      <trkpt lat="51.27569406071" lon="4.472857939786">
        <ele>0</ele>
        <time>2020-06-13T10:07:02Z</time>
      </trkpt>
      <trkpt lat="51.276147437681" lon="4.473387089133">
        <ele>0</ele>
        <time>2020-06-13T10:07:13Z</time>
      </trkpt>
      <trkpt lat="51.276596958978" lon="4.473903497992">
        <ele>0</ele>
        <time>2020-06-13T10:07:24Z</time>
      </trkpt>
      <trkpt lat="51.27704019385" lon="4.474421918507">
        <ele>0</ele>
        <time>2020-06-13T10:07:35Z</time>
      </trkpt>
      <trkpt lat="51.277477477573" lon="4.474942769773">
        <ele>0.4</ele>
        <time>2020-06-13T10:07:46Z</time>
      </trkpt>
      <trkpt lat="51.277928339974" lon="4.475454736225">
        <ele>0</ele>
        <time>2020-06-13T10:07:57Z</time>
      </trkpt>
      <trkpt lat="51.27838967975" lon="4.476021604122">
        <ele>0</ele>
        <time>2020-06-13T10:08:09Z</time>
      </trkpt>
      <trkpt lat="51.278825203274" lon="4.476565924708">
        <ele>0</ele>
        <time>2020-06-13T10:08:21Z</time>
      </trkpt>
      <trkpt lat="51.279294841131" lon="4.477128685474">
        <ele>0</ele>
        <time>2020-06-13T10:08:33Z</time>
      </trkpt>
      <trkpt lat="51.27975257669" lon="4.477653392414">
        <ele>0</ele>
        <time>2020-06-13T10:08:44Z</time>
      </trkpt>
      <trkpt lat="51.280216431036" lon="4.478161167916">
        <ele>1.6</ele>
        <time>2020-06-13T10:08:55Z</time>
      </trkpt>
      <trkpt lat="51.280672322577" lon="4.478685455761">
        <ele>0.6</ele>
        <time>2020-06-13T10:09:05Z</time>
      </trkpt>
      <trkpt lat="51.281119077847" lon="4.479226758863">
        <ele>0</ele>
        <time>2020-06-13T10:09:15Z</time>
      </trkpt>
      <trkpt lat="51.281581339632" lon="4.479769989802">
        <ele>1.4</ele>
        <time>2020-06-13T10:09:26Z</time>
      </trkpt>
      <trkpt lat="51.282041422123" lon="4.480315567673">
        <ele>1.4</ele>
        <time>2020-06-13T10:09:37Z</time>
      </trkpt>
      <trkpt lat="51.282478538208" lon="4.480823594632">
        <ele>2.4</ele>
        <time>2020-06-13T10:09:48Z</time>
      </trkpt>
      <trkpt lat="51.282924455288" lon="4.481373363453">
        <ele>3.2</ele>
        <time>2020-06-13T10:09:59Z</time>
      </trkpt>
      <trkpt lat="51.283373808947" lon="4.481904524456">
        <ele>2.4</ele>
        <time>2020-06-13T10:10:10Z</time>
      </trkpt>
      <trkpt lat="51.283843195347" lon="4.482434847269">
        <ele>2.4</ele>
        <time>2020-06-13T10:10:21Z</time>
      </trkpt>
      <trkpt lat="51.284309899539" lon="4.482989896687">
        <ele>3.4</ele>
        <time>2020-06-13T10:10:33Z</time>
      </trkpt>
      <trkpt lat="51.28449002657" lon="4.483221991498">
        <ele>3.8</ele>
        <time>2020-06-13T10:10:38Z</time>
      </trkpt>
      <trkpt lat="51.284514585537" lon="4.48336683073">
        <ele>3</ele>
        <time>2020-06-13T10:10:40Z</time>
      </trkpt>
      <trkpt lat="51.284310821548" lon="4.484194291898">
        <ele>3.4</ele>
        <time>2020-06-13T10:10:52Z</time>
      </trkpt>
      <trkpt lat="51.284139495512" lon="4.484912201633">
        <ele>1.2</ele>
        <time>2020-06-13T10:11:02Z</time>
      </trkpt>
      <trkpt lat="51.284140082245" lon="4.485068188792">
        <ele>0.4</ele>
        <time>2020-06-13T10:11:04Z</time>
      </trkpt>
      <trkpt lat="51.284163216289" lon="4.485221074648">
        <ele>0</ele>
        <time>2020-06-13T10:11:06Z</time>
      </trkpt>
      <trkpt lat="51.284206550712" lon="4.485355352686">
        <ele>0</ele>
        <time>2020-06-13T10:11:08Z</time>
      </trkpt>
      <trkpt lat="51.284271007523" lon="4.485466748137">
        <ele>0</ele>
        <time>2020-06-13T10:11:10Z</time>
      </trkpt>
      <trkpt lat="51.284732850213" lon="4.48603646588">
        <ele>0</ele>
        <time>2020-06-13T10:11:22Z</time>
      </trkpt>
      <trkpt lat="51.285197375111" lon="4.486599394284">
        <ele>2</ele>
        <time>2020-06-13T10:11:34Z</time>
      </trkpt>
      <trkpt lat="51.285625438744" lon="4.487161065403">
        <ele>2</ele>
        <time>2020-06-13T10:11:45Z</time>
      </trkpt>
      <trkpt lat="51.286081917018" lon="4.487739248865">
        <ele>2.8</ele>
        <time>2020-06-13T10:11:57Z</time>
      </trkpt>
      <trkpt lat="51.286544681717" lon="4.488307457866">
        <ele>2.2</ele>
        <time>2020-06-13T10:12:09Z</time>
      </trkpt>
      <trkpt lat="51.287002836371" lon="4.488873571392">
        <ele>1.4</ele>
        <time>2020-06-13T10:12:21Z</time>
      </trkpt>
      <trkpt lat="51.287423188656" lon="4.489424262222">
        <ele>2.4</ele>
        <time>2020-06-13T10:12:32Z</time>
      </trkpt>
      <trkpt lat="51.287784532365" lon="4.490086851417">
        <ele>3.2</ele>
        <time>2020-06-13T10:12:43Z</time>
      </trkpt>
      <trkpt lat="51.288148139187" lon="4.490746339309">
        <ele>8</ele>
        <time>2020-06-13T10:12:54Z</time>
      </trkpt>
      <trkpt lat="51.288263893226" lon="4.490989917323">
        <ele>9</ele>
        <time>2020-06-13T10:12:58Z</time>
      </trkpt>
      <trkpt lat="51.28831636392" lon="4.491111790149">
        <ele>8.8</ele>
        <time>2020-06-13T10:13:00Z</time>
      </trkpt>
      <trkpt lat="51.288699249112" lon="4.491754178965">
        <ele>7</ele>
        <time>2020-06-13T10:13:12Z</time>
      </trkpt>
      <trkpt lat="51.28873629711" lon="4.491790137316">
        <ele>6.6</ele>
        <time>2020-06-13T10:13:13Z</time>
      </trkpt>
      <trkpt lat="51.289235103979" lon="4.492161539305">
        <ele>5.2</ele>
        <time>2020-06-13T10:13:25Z</time>
      </trkpt>
      <trkpt lat="51.289381619591" lon="4.492112086095">
        <ele>5.2</ele>
        <time>2020-06-13T10:13:29Z</time>
      </trkpt>
      <trkpt lat="51.289468791351" lon="4.492000606825">
        <ele>4.2</ele>
        <time>2020-06-13T10:13:32Z</time>
      </trkpt>
      <trkpt lat="51.28989719026" lon="4.491555527935">
        <ele>0.4</ele>
        <time>2020-06-13T10:13:45Z</time>
      </trkpt>
      <trkpt lat="51.289979835794" lon="4.491564580387">
        <ele>1.4</ele>
        <time>2020-06-13T10:13:47Z</time>
      </trkpt>
      <trkpt lat="51.290057787464" lon="4.491643705523">
        <ele>4</ele>
        <time>2020-06-13T10:13:49Z</time>
      </trkpt>
      <trkpt lat="51.290372360171" lon="4.492259607535">
        <ele>5.6</ele>
        <time>2020-06-13T10:13:58Z</time>
      </trkpt>
      <trkpt lat="51.290685843231" lon="4.492686413883">
        <ele>6.6</ele>
        <time>2020-06-13T10:14:07Z</time>
      </trkpt>
      <trkpt lat="51.290255265028" lon="4.492162628952">
        <ele>4.8</ele>
        <time>2020-06-13T10:14:20Z</time>
      </trkpt>
      <trkpt lat="51.290216959745" lon="4.492027512724">
        <ele>3</ele>
        <time>2020-06-13T10:14:22Z</time>
      </trkpt>
      <trkpt lat="51.290031803574" lon="4.491786197823">
        <ele>2.4</ele>
        <time>2020-06-13T10:14:29Z</time>
      </trkpt>
      <trkpt lat="51.290031049203" lon="4.491709000524">
        <ele>3.6</ele>
        <time>2020-06-13T10:14:31Z</time>
      </trkpt>
      <trkpt lat="51.290053428876" lon="4.491707575601">
        <ele>5.2</ele>
        <time>2020-06-13T10:14:33Z</time>
      </trkpt>
      <trkpt lat="51.290098439679" lon="4.491718639709">
        <ele>5.6</ele>
        <time>2020-06-13T10:14:35Z</time>
      </trkpt>
      <trkpt lat="51.290348220299" lon="4.491433487471">
        <ele>6.2</ele>
        <time>2020-06-13T10:14:42Z</time>
      </trkpt>
      <trkpt lat="51.290853313593" lon="4.491063175129">
        <ele>9.4</ele>
        <time>2020-06-13T10:14:52Z</time>
      </trkpt>
      <trkpt lat="51.291217423329" lon="4.490808700645">
        <ele>12.8</ele>
        <time>2020-06-13T10:14:59Z</time>
      </trkpt>
      <trkpt lat="51.291781525199" lon="4.490645253595">
        <ele>8</ele>
        <time>2020-06-13T10:15:10Z</time>
      </trkpt>
      <trkpt lat="51.292332802762" lon="4.490453894818">
        <ele>10.4</ele>
        <time>2020-06-13T10:15:21Z</time>
      </trkpt>
      <trkpt lat="51.292899167745" lon="4.490284077524">
        <ele>8</ele>
        <time>2020-06-13T10:15:31Z</time>
      </trkpt>
      <trkpt lat="51.293440638485" lon="4.490079223888">
        <ele>6</ele>
        <time>2020-06-13T10:15:42Z</time>
      </trkpt>
      <trkpt lat="51.294002309604" lon="4.489879734668">
        <ele>5.4</ele>
        <time>2020-06-13T10:15:53Z</time>
      </trkpt>
      <trkpt lat="51.294565405646" lon="4.489638503586">
        <ele>16</ele>
        <time>2020-06-13T10:16:05Z</time>
      </trkpt>
      <trkpt lat="51.294957008014" lon="4.489473380156">
        <ele>18.4</ele>
        <time>2020-06-13T10:16:13Z</time>
      </trkpt>
      <trkpt lat="51.295290356177" lon="4.489341700507">
        <ele>16.8</ele>
        <time>2020-06-13T10:16:20Z</time>
      </trkpt>
      <trkpt lat="51.295832246012" lon="4.489129135523">
        <ele>21.4</ele>
        <time>2020-06-13T10:16:30Z</time>
      </trkpt>
      <trkpt lat="51.296420739211" lon="4.48901204038">
        <ele>13.2</ele>
        <time>2020-06-13T10:16:41Z</time>
      </trkpt>
      <trkpt lat="51.296956007345" lon="4.48882847677">
        <ele>9.8</ele>
        <time>2020-06-13T10:16:51Z</time>
      </trkpt>
      <trkpt lat="51.297500747026" lon="4.488609457723">
        <ele>5.6</ele>
        <time>2020-06-13T10:17:02Z</time>
      </trkpt>
      <trkpt lat="51.298025453966" lon="4.488367807546">
        <ele>7.2</ele>
        <time>2020-06-13T10:17:13Z</time>
      </trkpt>
      <trkpt lat="51.298552926933" lon="4.488133030527">
        <ele>6.6</ele>
        <time>2020-06-13T10:17:23Z</time>
      </trkpt>
      <trkpt lat="51.299321044249" lon="4.487759868339">
        <ele>7.2</ele>
        <time>2020-06-13T10:17:39Z</time>
      </trkpt>
      <trkpt lat="51.299848517216" lon="4.487507656968">
        <ele>8.2</ele>
        <time>2020-06-13T10:17:50Z</time>
      </trkpt>
      <trkpt lat="51.300398621313" lon="4.487291906862">
        <ele>15.4</ele>
        <time>2020-06-13T10:18:00Z</time>
      </trkpt>
      <trkpt lat="51.300705398853" lon="4.487177326289">
        <ele>12.2</ele>
        <time>2020-06-13T10:18:06Z</time>
      </trkpt>
      <trkpt lat="51.300849651352" lon="4.487188641854">
        <ele>11.6</ele>
        <time>2020-06-13T10:18:09Z</time>
      </trkpt>
      <trkpt lat="51.300925172271" lon="4.487107505062">
        <ele>10.2</ele>
        <time>2020-06-13T10:18:11Z</time>
      </trkpt>
      <trkpt lat="51.301004716502" lon="4.487040533681">
        <ele>9</ele>
        <time>2020-06-13T10:18:13Z</time>
      </trkpt>
      <trkpt lat="51.30156647144" lon="4.486790166328">
        <ele>7.4</ele>
        <time>2020-06-13T10:18:24Z</time>
      </trkpt>
      <trkpt lat="51.302098051538" lon="4.486560753725">
        <ele>5.2</ele>
        <time>2020-06-13T10:18:34Z</time>
      </trkpt>
      <trkpt lat="51.302650418748" lon="4.48631725953">
        <ele>4.4</ele>
        <time>2020-06-13T10:18:45Z</time>
      </trkpt>
      <trkpt lat="51.303209910573" lon="4.486077704828">
        <ele>6.4</ele>
        <time>2020-06-13T10:18:56Z</time>
      </trkpt>
      <trkpt lat="51.30374157449" lon="4.485829181493">
        <ele>8.6</ele>
        <time>2020-06-13T10:19:07Z</time>
      </trkpt>
      <trkpt lat="51.303829668259" lon="4.485803700517">
        <ele>9.2</ele>
        <time>2020-06-13T10:19:09Z</time>
      </trkpt>
      <trkpt lat="51.304288325827" lon="4.486226148277">
        <ele>10.8</ele>
        <time>2020-06-13T10:19:23Z</time>
      </trkpt>
      <trkpt lat="51.304662661481" lon="4.486927126574">
        <ele>9.6</ele>
        <time>2020-06-13T10:19:33Z</time>
      </trkpt>
      <trkpt lat="51.305030291615" lon="4.487628523966">
        <ele>7.4</ele>
        <time>2020-06-13T10:19:43Z</time>
      </trkpt>
      <trkpt lat="51.305377889008" lon="4.488286754573">
        <ele>7</ele>
        <time>2020-06-13T10:19:54Z</time>
      </trkpt>
      <trkpt lat="51.305752308481" lon="4.488977926047">
        <ele>5.6</ele>
        <time>2020-06-13T10:20:06Z</time>
      </trkpt>
      <trkpt lat="51.306155729328" lon="4.489621907424">
        <ele>5</ele>
        <time>2020-06-13T10:20:18Z</time>
      </trkpt>
      <trkpt lat="51.306540207081" lon="4.490237138884">
        <ele>6.2</ele>
        <time>2020-06-13T10:20:29Z</time>
      </trkpt>
      <trkpt lat="51.30695268038" lon="4.4908962915">
        <ele>8</ele>
        <time>2020-06-13T10:20:41Z</time>
      </trkpt>
      <trkpt lat="51.307342690187" lon="4.49153080133">
        <ele>9.2</ele>
        <time>2020-06-13T10:20:53Z</time>
      </trkpt>
      <trkpt lat="51.307727084121" lon="4.492167322816">
        <ele>8.4</ele>
        <time>2020-06-13T10:21:04Z</time>
      </trkpt>
      <trkpt lat="51.308139222144" lon="4.492805939777">
        <ele>9.4</ele>
        <time>2020-06-13T10:21:16Z</time>
      </trkpt>
      <trkpt lat="51.308523364621" lon="4.493442796539">
        <ele>9</ele>
        <time>2020-06-13T10:21:28Z</time>
      </trkpt>
      <trkpt lat="51.308942962535" lon="4.494086275002">
        <ele>9.6</ele>
        <time>2020-06-13T10:21:40Z</time>
      </trkpt>
      <trkpt lat="51.309328697573" lon="4.494694381847">
        <ele>8</ele>
        <time>2020-06-13T10:21:51Z</time>
      </trkpt>
      <trkpt lat="51.309734130076" lon="4.495332579713">
        <ele>10.2</ele>
        <time>2020-06-13T10:22:03Z</time>
      </trkpt>
      <trkpt lat="51.310161020243" lon="4.495941860024">
        <ele>8.2</ele>
        <time>2020-06-13T10:22:13Z</time>
      </trkpt>
      <trkpt lat="51.310599309794" lon="4.496542674616">
        <ele>7.6</ele>
        <time>2020-06-13T10:22:24Z</time>
      </trkpt>
      <trkpt lat="51.311035922965" lon="4.497150530004">
        <ele>6.6</ele>
        <time>2020-06-13T10:22:35Z</time>
      </trkpt>
      <trkpt lat="51.311474212516" lon="4.497741537773">
        <ele>5.8</ele>
        <time>2020-06-13T10:22:46Z</time>
      </trkpt>
      <trkpt lat="51.311910238954" lon="4.498317039027">
        <ele>6</ele>
        <time>2020-06-13T10:22:57Z</time>
      </trkpt>
      <trkpt lat="51.312333943999" lon="4.498877871956">
        <ele>6</ele>
        <time>2020-06-13T10:23:08Z</time>
      </trkpt>
      <trkpt lat="51.312757816682" lon="4.49943409484">
        <ele>8.6</ele>
        <time>2020-06-13T10:23:19Z</time>
      </trkpt>
      <trkpt lat="51.313187053781" lon="4.499979840349">
        <ele>13</ele>
        <time>2020-06-13T10:23:30Z</time>
      </trkpt>
      <trkpt lat="51.313631881214" lon="4.500522400736">
        <ele>15</ele>
        <time>2020-06-13T10:23:42Z</time>
      </trkpt>
      <trkpt lat="51.314064387254" lon="4.501101170931">
        <ele>12.8</ele>
        <time>2020-06-13T10:23:57Z</time>
      </trkpt>
      <trkpt lat="51.314515920207" lon="4.501688909759">
        <ele>11.2</ele>
        <time>2020-06-13T10:24:08Z</time>
      </trkpt>
      <trkpt lat="51.314940882537" lon="4.502218059106">
        <ele>11.6</ele>
        <time>2020-06-13T10:24:20Z</time>
      </trkpt>
      <trkpt lat="51.31512922383" lon="4.502957929419">
        <ele>8.6</ele>
        <time>2020-06-13T10:24:35Z</time>
      </trkpt>
      <trkpt lat="51.315041884432" lon="4.503505267489">
        <ele>3.8</ele>
        <time>2020-06-13T10:24:42Z</time>
      </trkpt>
      <trkpt lat="51.314973404309" lon="4.503721017595">
        <ele>3.8</ele>
        <time>2020-06-13T10:24:45Z</time>
      </trkpt>
      <trkpt lat="51.31493224918" lon="4.504649983572">
        <ele>7.8</ele>
        <time>2020-06-13T10:24:56Z</time>
      </trkpt>
      <trkpt lat="51.314919927787" lon="4.505583308137">
        <ele>7.8</ele>
        <time>2020-06-13T10:25:07Z</time>
      </trkpt>
      <trkpt lat="51.314875587536" lon="4.506452427348">
        <ele>13</ele>
        <time>2020-06-13T10:25:18Z</time>
      </trkpt>
      <trkpt lat="51.314943313288" lon="4.507041255823">
        <ele>14</ele>
        <time>2020-06-13T10:25:27Z</time>
      </trkpt>
      <trkpt lat="51.315033921627" lon="4.507056007967">
        <ele>13.2</ele>
        <time>2020-06-13T10:25:29Z</time>
      </trkpt>
      <trkpt lat="51.315585785923" lon="4.506994233364">
        <ele>11.8</ele>
        <time>2020-06-13T10:25:40Z</time>
      </trkpt>
      <trkpt lat="51.316041677464" lon="4.506973110976">
        <ele>10.2</ele>
        <time>2020-06-13T10:25:49Z</time>
      </trkpt>
      <trkpt lat="51.316135638563" lon="4.507009907517">
        <ele>10</ele>
        <time>2020-06-13T10:25:51Z</time>
      </trkpt>
      <trkpt lat="51.31670921198" lon="4.506965483447">
        <ele>13</ele>
        <time>2020-06-13T10:26:02Z</time>
      </trkpt>
      <trkpt lat="51.317290832021" lon="4.506943355231">
        <ele>15.6</ele>
        <time>2020-06-13T10:26:14Z</time>
      </trkpt>
      <trkpt lat="51.317810426002" lon="4.506908402708">
        <ele>14.6</ele>
        <time>2020-06-13T10:26:26Z</time>
      </trkpt>
      <trkpt lat="51.318350471819" lon="4.506872611995">
        <ele>16</ele>
        <time>2020-06-13T10:26:37Z</time>
      </trkpt>
      <trkpt lat="51.318904347771" lon="4.506812765229">
        <ele>21.2</ele>
        <time>2020-06-13T10:26:48Z</time>
      </trkpt>
      <trkpt lat="51.319452104936" lon="4.50677831562">
        <ele>21.8</ele>
        <time>2020-06-13T10:27:00Z</time>
      </trkpt>
      <trkpt lat="51.320027438552" lon="4.506742105812">
        <ele>21.6</ele>
        <time>2020-06-13T10:27:12Z</time>
      </trkpt>
      <trkpt lat="51.320369252434" lon="4.506750571531">
        <ele>20</ele>
        <time>2020-06-13T10:27:19Z</time>
      </trkpt>
      <trkpt lat="51.320596401924" lon="4.506775214317">
        <ele>15.6</ele>
        <time>2020-06-13T10:27:24Z</time>
      </trkpt>
      <trkpt lat="51.320684998607" lon="4.506726683116">
        <ele>14.8</ele>
        <time>2020-06-13T10:27:26Z</time>
      </trkpt>
      <trkpt lat="51.320773511471" lon="4.506692987878">
        <ele>15.2</ele>
        <time>2020-06-13T10:27:28Z</time>
      </trkpt>
      <trkpt lat="51.321336775151" lon="4.506705309271">
        <ele>16.4</ele>
        <time>2020-06-13T10:27:40Z</time>
      </trkpt>
      <trkpt lat="51.321920742124" lon="4.506667423083">
        <ele>12.4</ele>
        <time>2020-06-13T10:27:51Z</time>
      </trkpt>
      <trkpt lat="51.322501691613" lon="4.506682929598">
        <ele>4.8</ele>
        <time>2020-06-13T10:28:03Z</time>
      </trkpt>
      <trkpt lat="51.323096555056" lon="4.506679325381">
        <ele>9.2</ele>
        <time>2020-06-13T10:28:14Z</time>
      </trkpt>
      <trkpt lat="51.323684042427" lon="4.506680582666">
        <ele>13.4</ele>
        <time>2020-06-13T10:28:24Z</time>
      </trkpt>
      <trkpt lat="51.324173042473" lon="4.506669853834">
        <ele>14</ele>
        <time>2020-06-13T10:28:34Z</time>
      </trkpt>
      <trkpt lat="51.32476170331" lon="4.506640181908">
        <ele>11.8</ele>
        <time>2020-06-13T10:28:45Z</time>
      </trkpt>
      <trkpt lat="51.325331504872" lon="4.506639259899">
        <ele>14.2</ele>
        <time>2020-06-13T10:28:56Z</time>
      </trkpt>
      <trkpt lat="51.325904826832" lon="4.506686366177">
        <ele>9.4</ele>
        <time>2020-06-13T10:29:08Z</time>
      </trkpt>
      <trkpt lat="51.32644897978" lon="4.506686030901">
        <ele>5</ele>
        <time>2020-06-13T10:29:19Z</time>
      </trkpt>
      <trkpt lat="51.327017440238" lon="4.506675721164">
        <ele>0.6</ele>
        <time>2020-06-13T10:29:31Z</time>
      </trkpt>
      <trkpt lat="51.32706504943" lon="4.506670692024">
        <ele>0</ele>
        <time>2020-06-13T10:29:32Z</time>
      </trkpt>
      <trkpt lat="51.327645998919" lon="4.506632219103">
        <ele>2.8</ele>
        <time>2020-06-13T10:29:43Z</time>
      </trkpt>
      <trkpt lat="51.328227954236" lon="4.506604055919">
        <ele>7</ele>
        <time>2020-06-13T10:29:54Z</time>
      </trkpt>
      <trkpt lat="51.328435741537" lon="4.506567678473">
        <ele>9</ele>
        <time>2020-06-13T10:29:58Z</time>
      </trkpt>
      <trkpt lat="51.328949384369" lon="4.506246316427">
        <ele>12.4</ele>
        <time>2020-06-13T10:30:08Z</time>
      </trkpt>
      <trkpt lat="51.329468056341" lon="4.505942556371">
        <ele>17.2</ele>
        <time>2020-06-13T10:30:18Z</time>
      </trkpt>
      <trkpt lat="51.329815067001" lon="4.505762177883">
        <ele>23.8</ele>
        <time>2020-06-13T10:30:24Z</time>
      </trkpt>
      <trkpt lat="51.329855467759" lon="4.505720436021">
        <ele>25.2</ele>
        <time>2020-06-13T10:30:26Z</time>
      </trkpt>
      <trkpt lat="51.330378079224" lon="4.505444587692">
        <ele>27.6</ele>
        <time>2020-06-13T10:30:37Z</time>
      </trkpt>
      <trkpt lat="51.33092659076" lon="4.505132026641">
        <ele>23</ele>
        <time>2020-06-13T10:30:49Z</time>
      </trkpt>
      <trkpt lat="51.331461439799" lon="4.504816783382">
        <ele>19.6</ele>
        <time>2020-06-13T10:31:00Z</time>
      </trkpt>
      <trkpt lat="51.332009029326" lon="4.504516376086">
        <ele>19.4</ele>
        <time>2020-06-13T10:31:11Z</time>
      </trkpt>
      <trkpt lat="51.332553769007" lon="4.504263075068">
        <ele>20.4</ele>
        <time>2020-06-13T10:31:22Z</time>
      </trkpt>
      <trkpt lat="51.33310001743" lon="4.503974234794">
        <ele>15.2</ele>
        <time>2020-06-13T10:31:34Z</time>
      </trkpt>
      <trkpt lat="51.333658168151" lon="4.503668379263">
        <ele>16.4</ele>
        <time>2020-06-13T10:31:45Z</time>
      </trkpt>
      <trkpt lat="51.334216235053" lon="4.503367636691">
        <ele>17.4</ele>
        <time>2020-06-13T10:31:56Z</time>
      </trkpt>
      <trkpt lat="51.334766506788" lon="4.503053818355">
        <ele>17.6</ele>
        <time>2020-06-13T10:32:07Z</time>
      </trkpt>
      <trkpt lat="51.335283586199" lon="4.502797332215">
        <ele>15.2</ele>
        <time>2020-06-13T10:32:18Z</time>
      </trkpt>
      <trkpt lat="51.335378469307" lon="4.502838403525">
        <ele>15.4</ele>
        <time>2020-06-13T10:32:20Z</time>
      </trkpt>
      <trkpt lat="51.335437394064" lon="4.502973687391">
        <ele>14.2</ele>
        <time>2020-06-13T10:32:22Z</time>
      </trkpt>
      <trkpt lat="51.335819524885" lon="4.504267433656">
        <ele>18.6</ele>
        <time>2020-06-13T10:32:38Z</time>
      </trkpt>
      <trkpt lat="51.336076513939" lon="4.505109814606">
        <ele>18</ele>
        <time>2020-06-13T10:32:49Z</time>
      </trkpt>
      <trkpt lat="51.336208109769" lon="4.505561347559">
        <ele>18</ele>
        <time>2020-06-13T10:32:55Z</time>
      </trkpt>
      <trkpt lat="51.3362373626" lon="4.505715909795">
        <ele>17.8</ele>
        <time>2020-06-13T10:32:57Z</time>
      </trkpt>
      <trkpt lat="51.336487729953" lon="4.506560721496">
        <ele>18.6</ele>
        <time>2020-06-13T10:33:09Z</time>
      </trkpt>
      <trkpt lat="51.336745054283" lon="4.507370413036">
        <ele>19.4</ele>
        <time>2020-06-13T10:33:21Z</time>
      </trkpt>
      <trkpt lat="51.337004809364" lon="4.50818982758">
        <ele>20</ele>
        <time>2020-06-13T10:33:34Z</time>
      </trkpt>
      <trkpt lat="51.337021405526" lon="4.508254619667">
        <ele>20</ele>
        <time>2020-06-13T10:33:35Z</time>
      </trkpt>
      <trkpt lat="51.337051580366" lon="4.50838177309">
        <ele>20.2</ele>
        <time>2020-06-13T10:33:37Z</time>
      </trkpt>
      <trkpt lat="51.337245369894" lon="4.508977055628">
        <ele>20.8</ele>
        <time>2020-06-13T10:33:47Z</time>
      </trkpt>
      <trkpt lat="51.337298930235" lon="4.509110076381">
        <ele>20.8</ele>
        <time>2020-06-13T10:33:50Z</time>
      </trkpt>
      <trkpt lat="51.337277724028" lon="4.509161541247">
        <ele>21</ele>
        <time>2020-06-13T10:33:52Z</time>
      </trkpt>
      <trkpt lat="51.337258780934" lon="4.509060455533">
        <ele>20.2</ele>
        <time>2020-06-13T10:33:56Z</time>
      </trkpt>
      <trkpt lat="51.337267833386" lon="4.509043691733">
        <ele>20</ele>
        <time>2020-06-13T10:33:57Z</time>
      </trkpt>
      <trkpt lat="51.337331703464" lon="4.509028688132">
        <ele>24</ele>
        <time>2020-06-13T10:34:40Z</time>
      </trkpt>
      <trkpt lat="51.337323489202" lon="4.50911686572">
        <ele>23.6</ele>
        <time>2020-06-13T10:34:44Z</time>
      </trkpt>
      <trkpt lat="51.33734964073" lon="4.509220885099">
        <ele>23.2</ele>
        <time>2020-06-13T10:34:47Z</time>
      </trkpt>
      <trkpt lat="51.337592464373" lon="4.509998557781">
        <ele>16.2</ele>
        <time>2020-06-13T10:34:59Z</time>
      </trkpt>
      <trkpt lat="51.337829755962" lon="4.510832473012">
        <ele>10.8</ele>
        <time>2020-06-13T10:35:10Z</time>
      </trkpt>
      <trkpt lat="51.338097222391" lon="4.51164568495">
        <ele>5.6</ele>
        <time>2020-06-13T10:35:21Z</time>
      </trkpt>
      <trkpt lat="51.338330155392" lon="4.512507931003">
        <ele>6.8</ele>
        <time>2020-06-13T10:35:32Z</time>
      </trkpt>
      <trkpt lat="51.338598627649" lon="4.513331117402">
        <ele>6.8</ele>
        <time>2020-06-13T10:35:44Z</time>
      </trkpt>
      <trkpt lat="51.338814629212" lon="4.514087583877">
        <ele>5.8</ele>
        <time>2020-06-13T10:35:55Z</time>
      </trkpt>
      <trkpt lat="51.339054100095" lon="4.514918146348">
        <ele>9.8</ele>
        <time>2020-06-13T10:36:07Z</time>
      </trkpt>
      <trkpt lat="51.339288206562" lon="4.515738818177">
        <ele>16.4</ele>
        <time>2020-06-13T10:36:18Z</time>
      </trkpt>
      <trkpt lat="51.339405301705" lon="4.516097647316">
        <ele>17.6</ele>
        <time>2020-06-13T10:36:24Z</time>
      </trkpt>
      <trkpt lat="51.339922213478" lon="4.515968566056">
        <ele>20.6</ele>
        <time>2020-06-13T10:36:36Z</time>
      </trkpt>
      <trkpt lat="51.340429318428" lon="4.51560780908">
        <ele>23.2</ele>
        <time>2020-06-13T10:36:46Z</time>
      </trkpt>
      <trkpt lat="51.340829721791" lon="4.515343024859">
        <ele>22.2</ele>
        <time>2020-06-13T10:36:54Z</time>
      </trkpt>
      <trkpt lat="51.341377898051" lon="4.515136578662">
        <ele>17.8</ele>
        <time>2020-06-13T10:37:05Z</time>
      </trkpt>
      <trkpt lat="51.341886008829" lon="4.514829298208">
        <ele>18.8</ele>
        <time>2020-06-13T10:37:16Z</time>
      </trkpt>
      <trkpt lat="51.342410799588" lon="4.514544900341">
        <ele>19.6</ele>
        <time>2020-06-13T10:37:27Z</time>
      </trkpt>
      <trkpt lat="51.342955371631" lon="4.514243571036">
        <ele>21.4</ele>
        <time>2020-06-13T10:37:38Z</time>
      </trkpt>
      <trkpt lat="51.343493992525" lon="4.513914246185">
        <ele>22.4</ele>
        <time>2020-06-13T10:37:49Z</time>
      </trkpt>
      <trkpt lat="51.344031020858" lon="4.513590788664">
        <ele>22.4</ele>
        <time>2020-06-13T10:38:00Z</time>
      </trkpt>
      <trkpt lat="51.344571318132" lon="4.513263726926">
        <ele>21.8</ele>
        <time>2020-06-13T10:38:11Z</time>
      </trkpt>
      <trkpt lat="51.345102562954" lon="4.51294152669">
        <ele>22.6</ele>
        <time>2020-06-13T10:38:21Z</time>
      </trkpt>
      <trkpt lat="51.345628778636" lon="4.512637431358">
        <ele>21</ele>
        <time>2020-06-13T10:38:31Z</time>
      </trkpt>
      <trkpt lat="51.346179804742" lon="4.51232797161">
        <ele>20</ele>
        <time>2020-06-13T10:38:42Z</time>
      </trkpt>
      <trkpt lat="51.346693028479" lon="4.512021864622">
        <ele>19</ele>
        <time>2020-06-13T10:38:52Z</time>
      </trkpt>
      <trkpt lat="51.3472260335" lon="4.51171776929">
        <ele>19.6</ele>
        <time>2020-06-13T10:39:02Z</time>
      </trkpt>
      <trkpt lat="51.347739508694" lon="4.511416775261">
        <ele>20.6</ele>
        <time>2020-06-13T10:39:12Z</time>
      </trkpt>
      <trkpt lat="51.348269496231" lon="4.51107571575">
        <ele>20.8</ele>
        <time>2020-06-13T10:39:23Z</time>
      </trkpt>
      <trkpt lat="51.348811972799" lon="4.510723089217">
        <ele>22.6</ele>
        <time>2020-06-13T10:39:34Z</time>
      </trkpt>
      <trkpt lat="51.349353527358" lon="4.51040264918">
        <ele>25.4</ele>
        <time>2020-06-13T10:39:45Z</time>
      </trkpt>
      <trkpt lat="51.349897596487" lon="4.510067205542">
        <ele>29</ele>
        <time>2020-06-13T10:39:55Z</time>
      </trkpt>
      <trkpt lat="51.350433535173" lon="4.509784651693">
        <ele>26</ele>
        <time>2020-06-13T10:40:06Z</time>
      </trkpt>
      <trkpt lat="51.350954218801" lon="4.509506372613">
        <ele>18.6</ele>
        <time>2020-06-13T10:40:17Z</time>
      </trkpt>
      <trkpt lat="51.351482781415" lon="4.509181825445">
        <ele>24.2</ele>
        <time>2020-06-13T10:40:27Z</time>
      </trkpt>
      <trkpt lat="51.352029281295" lon="4.508853757879">
        <ele>19.8</ele>
        <time>2020-06-13T10:40:38Z</time>
      </trkpt>
      <trkpt lat="51.352576787003" lon="4.508516302585">
        <ele>20</ele>
        <time>2020-06-13T10:40:49Z</time>
      </trkpt>
      <trkpt lat="51.353124292711" lon="4.508185468992">
        <ele>17.6</ele>
        <time>2020-06-13T10:41:01Z</time>
      </trkpt>
      <trkpt lat="51.353657130094" lon="4.507897634546">
        <ele>19.4</ele>
        <time>2020-06-13T10:41:13Z</time>
      </trkpt>
      <trkpt lat="51.354170940564" lon="4.507540565606">
        <ele>20</ele>
        <time>2020-06-13T10:41:24Z</time>
      </trkpt>
      <trkpt lat="51.354695898961" lon="4.507261196879">
        <ele>25.6</ele>
        <time>2020-06-13T10:41:35Z</time>
      </trkpt>
      <trkpt lat="51.35527181931" lon="4.507110825593">
        <ele>25.2</ele>
        <time>2020-06-13T10:41:46Z</time>
      </trkpt>
      <trkpt lat="51.355829802393" lon="4.507069921921">
        <ele>25.6</ele>
        <time>2020-06-13T10:41:57Z</time>
      </trkpt>
      <trkpt lat="51.356386444372" lon="4.507098420381">
        <ele>22.6</ele>
        <time>2020-06-13T10:42:08Z</time>
      </trkpt>
      <trkpt lat="51.356971081897" lon="4.507135887474">
        <ele>22</ele>
        <time>2020-06-13T10:42:19Z</time>
      </trkpt>
      <trkpt lat="51.357516156854" lon="4.50715382474">
        <ele>22.8</ele>
        <time>2020-06-13T10:42:29Z</time>
      </trkpt>
      <trkpt lat="51.358056537947" lon="4.507119794226">
        <ele>25.4</ele>
        <time>2020-06-13T10:42:40Z</time>
      </trkpt>
      <trkpt lat="51.358598511601" lon="4.506954922253">
        <ele>27.6</ele>
        <time>2020-06-13T10:42:51Z</time>
      </trkpt>
      <trkpt lat="51.359136629581" lon="4.50680094675">
        <ele>27.6</ele>
        <time>2020-06-13T10:43:02Z</time>
      </trkpt>
      <trkpt lat="51.35924819267" lon="4.506771023367">
        <ele>26.2</ele>
        <time>2020-06-13T10:43:04Z</time>
      </trkpt>
      <trkpt lat="51.359347769642" lon="4.506732885722">
        <ele>25.8</ele>
        <time>2020-06-13T10:43:06Z</time>
      </trkpt>
      <trkpt lat="51.359901058861" lon="4.506589974327">
        <ele>22.2</ele>
        <time>2020-06-13T10:43:17Z</time>
      </trkpt>
      <trkpt lat="51.360471279518" lon="4.506439267765">
        <ele>22.4</ele>
        <time>2020-06-13T10:43:28Z</time>
      </trkpt>
      <trkpt lat="51.361010403326" lon="4.506286214271">
        <ele>21</ele>
        <time>2020-06-13T10:43:39Z</time>
      </trkpt>
      <trkpt lat="51.361587664779" lon="4.506140285392">
        <ele>20.6</ele>
        <time>2020-06-13T10:43:51Z</time>
      </trkpt>
      <trkpt lat="51.36163954874" lon="4.50613290932">
        <ele>21.4</ele>
        <time>2020-06-13T10:43:52Z</time>
      </trkpt>
      <trkpt lat="51.362037186076" lon="4.50611949828">
        <ele>27</ele>
        <time>2020-06-13T10:44:00Z</time>
      </trkpt>
      <trkpt lat="51.362119663972" lon="4.506081528273">
        <ele>26.8</ele>
        <time>2020-06-13T10:44:02Z</time>
      </trkpt>
      <trkpt lat="51.362242039712" lon="4.506102483023">
        <ele>26.2</ele>
        <time>2020-06-13T10:44:05Z</time>
      </trkpt>
      <trkpt lat="51.362307502351" lon="4.506253524861">
        <ele>26</ele>
        <time>2020-06-13T10:44:10Z</time>
      </trkpt>
      <trkpt lat="51.362293839854" lon="4.506356286955">
        <ele>25.2</ele>
        <time>2020-06-13T10:44:14Z</time>
      </trkpt>
      <trkpt lat="51.362329043834" lon="4.50639023365">
        <ele>25.4</ele>
        <time>2020-06-13T10:44:16Z</time>
      </trkpt>
      <trkpt lat="51.362905634735" lon="4.506427868381">
        <ele>26.2</ele>
        <time>2020-06-13T10:44:30Z</time>
      </trkpt>
      <trkpt lat="51.36345925923" lon="4.506482015455">
        <ele>26.4</ele>
        <time>2020-06-13T10:44:40Z</time>
      </trkpt>
      <trkpt lat="51.364024953661" lon="4.506532558312">
        <ele>27.2</ele>
        <time>2020-06-13T10:44:49Z</time>
      </trkpt>
      <trkpt lat="51.364571034446" lon="4.506557284917">
        <ele>30.2</ele>
        <time>2020-06-13T10:44:58Z</time>
      </trkpt>
      <trkpt lat="51.365144272587" lon="4.506617131683">
        <ele>29</ele>
        <time>2020-06-13T10:45:08Z</time>
      </trkpt>
      <trkpt lat="51.365735531813" lon="4.506656526613">
        <ele>26</ele>
        <time>2020-06-13T10:45:19Z</time>
      </trkpt>
      <trkpt lat="51.366281696417" lon="4.506712182429">
        <ele>24.2</ele>
        <time>2020-06-13T10:45:29Z</time>
      </trkpt>
      <trkpt lat="51.366871111625" lon="4.506766832417">
        <ele>23.4</ele>
        <time>2020-06-13T10:45:40Z</time>
      </trkpt>
      <trkpt lat="51.367448624535" lon="4.506832881789">
        <ele>21.8</ele>
        <time>2020-06-13T10:45:51Z</time>
      </trkpt>
      <trkpt lat="51.368014738061" lon="4.506881915904">
        <ele>22.2</ele>
        <time>2020-06-13T10:46:02Z</time>
      </trkpt>
      <trkpt lat="51.36859233479" lon="4.506897170962">
        <ele>22.8</ele>
        <time>2020-06-13T10:46:13Z</time>
      </trkpt>
      <trkpt lat="51.36917906779" lon="4.506907899794">
        <ele>23</ele>
        <time>2020-06-13T10:46:24Z</time>
      </trkpt>
      <trkpt lat="51.369735123036" lon="4.506915527323">
        <ele>23.2</ele>
        <time>2020-06-13T10:46:34Z</time>
      </trkpt>
      <trkpt lat="51.370309199367" lon="4.50692332249">
        <ele>23</ele>
        <time>2020-06-13T10:46:44Z</time>
      </trkpt>
      <trkpt lat="51.370863662052" lon="4.506932626399">
        <ele>22.8</ele>
        <time>2020-06-13T10:46:54Z</time>
      </trkpt>
      <trkpt lat="51.371442432247" lon="4.506932877856">
        <ele>21.8</ele>
        <time>2020-06-13T10:47:04Z</time>
      </trkpt>
      <trkpt lat="51.371995721466" lon="4.506924663594">
        <ele>22.2</ele>
        <time>2020-06-13T10:47:13Z</time>
      </trkpt>
      <trkpt lat="51.372576503317" lon="4.506933716046">
        <ele>22.2</ele>
        <time>2020-06-13T10:47:23Z</time>
      </trkpt>
      <trkpt lat="51.372630650391" lon="4.506946121258">
        <ele>22</ele>
        <time>2020-06-13T10:47:24Z</time>
      </trkpt>
      <trkpt lat="51.372740956195" lon="4.506981241419">
        <ele>22</ele>
        <time>2020-06-13T10:47:26Z</time>
      </trkpt>
      <trkpt lat="51.373009763728" lon="4.507007225309">
        <ele>22.4</ele>
        <time>2020-06-13T10:47:31Z</time>
      </trkpt>
      <trkpt lat="51.373113028736" lon="4.507012254449">
        <ele>22.6</ele>
        <time>2020-06-13T10:47:33Z</time>
      </trkpt>
      <trkpt lat="51.373222663988" lon="4.507183664304">
        <ele>22.4</ele>
        <time>2020-06-13T10:47:36Z</time>
      </trkpt>
      <trkpt lat="51.373391559273" lon="4.508031577308">
        <ele>22</ele>
        <time>2020-06-13T10:47:46Z</time>
      </trkpt>
      <trkpt lat="51.373531704641" lon="4.509296406018">
        <ele>20.6</ele>
        <time>2020-06-13T10:48:02Z</time>
      </trkpt>
      <trkpt lat="51.373655924399" lon="4.510158903528">
        <ele>20.6</ele>
        <time>2020-06-13T10:48:13Z</time>
      </trkpt>
      <trkpt lat="51.373824400589" lon="4.510991980569">
        <ele>22.2</ele>
        <time>2020-06-13T10:48:24Z</time>
      </trkpt>
      <trkpt lat="51.373834626507" lon="4.511077475949">
        <ele>22</ele>
        <time>2020-06-13T10:48:25Z</time>
      </trkpt>
      <trkpt lat="51.373948201252" lon="4.511981547683">
        <ele>21.8</ele>
        <time>2020-06-13T10:48:36Z</time>
      </trkpt>
      <trkpt lat="51.374067894784" lon="4.512839938062">
        <ele>22</ele>
        <time>2020-06-13T10:48:47Z</time>
      </trkpt>
      <trkpt lat="51.374143583341" lon="4.513698076984">
        <ele>19.6</ele>
        <time>2020-06-13T10:48:58Z</time>
      </trkpt>
      <trkpt lat="51.374200077347" lon="4.514599885605">
        <ele>16.4</ele>
        <time>2020-06-13T10:49:10Z</time>
      </trkpt>
      <trkpt lat="51.374253050955" lon="4.515506555728">
        <ele>19</ele>
        <time>2020-06-13T10:49:23Z</time>
      </trkpt>
      <trkpt lat="51.374304432002" lon="4.516397719336">
        <ele>14.4</ele>
        <time>2020-06-13T10:49:39Z</time>
      </trkpt>
      <trkpt lat="51.374363021483" lon="4.517264323977">
        <ele>12.6</ele>
        <time>2020-06-13T10:49:50Z</time>
      </trkpt>
      <trkpt lat="51.374405936811" lon="4.517589457878">
        <ele>14</ele>
        <time>2020-06-13T10:49:55Z</time>
      </trkpt>
      <trkpt lat="51.374432507434" lon="4.517890954821">
        <ele>15.6</ele>
        <time>2020-06-13T10:49:59Z</time>
      </trkpt>
      <trkpt lat="51.374457904591" lon="4.518049288912">
        <ele>17.6</ele>
        <time>2020-06-13T10:50:01Z</time>
      </trkpt>
      <trkpt lat="51.374490342544" lon="4.518759319661">
        <ele>22</ele>
        <time>2020-06-13T10:50:11Z</time>
      </trkpt>
      <trkpt lat="51.374573407173" lon="4.519251504829">
        <ele>20.2</ele>
        <time>2020-06-13T10:50:18Z</time>
      </trkpt>
      <trkpt lat="51.374653119042" lon="4.519437583009">
        <ele>20.6</ele>
        <time>2020-06-13T10:50:21Z</time>
      </trkpt>
      <trkpt lat="51.375138347233" lon="4.519882326623">
        <ele>19.2</ele>
        <time>2020-06-13T10:50:32Z</time>
      </trkpt>
      <trkpt lat="51.375632879333" lon="4.520328243703">
        <ele>19.8</ele>
        <time>2020-06-13T10:50:43Z</time>
      </trkpt>
      <trkpt lat="51.376136128609" lon="4.520804335623">
        <ele>21.4</ele>
        <time>2020-06-13T10:50:54Z</time>
      </trkpt>
      <trkpt lat="51.376641557179" lon="4.521272380919">
        <ele>22.6</ele>
        <time>2020-06-13T10:51:05Z</time>
      </trkpt>
      <trkpt lat="51.3771242708" lon="4.521732798686">
        <ele>22.2</ele>
        <time>2020-06-13T10:51:16Z</time>
      </trkpt>
      <trkpt lat="51.377477651704" lon="4.522132028583">
        <ele>22.6</ele>
        <time>2020-06-13T10:51:26Z</time>
      </trkpt>
      <trkpt lat="51.37779230823" lon="4.522906180867">
        <ele>17.2</ele>
        <time>2020-06-13T10:51:38Z</time>
      </trkpt>
      <trkpt lat="51.37812926061" lon="4.523677148029">
        <ele>16.8</ele>
        <time>2020-06-13T10:51:49Z</time>
      </trkpt>
      <trkpt lat="51.378222215881" lon="4.523885354425">
        <ele>16.6</ele>
        <time>2020-06-13T10:51:52Z</time>
      </trkpt>
      <trkpt lat="51.378506949024" lon="4.524668559161">
        <ele>15.4</ele>
        <time>2020-06-13T10:52:03Z</time>
      </trkpt>
      <trkpt lat="51.378585738884" lon="4.524876597919">
        <ele>14.4</ele>
        <time>2020-06-13T10:52:06Z</time>
      </trkpt>
      <trkpt lat="51.378893354614" lon="4.525634656955">
        <ele>15.6</ele>
        <time>2020-06-13T10:52:18Z</time>
      </trkpt>
      <trkpt lat="51.379205748027" lon="4.526406546126">
        <ele>15.8</ele>
        <time>2020-06-13T10:52:29Z</time>
      </trkpt>
      <trkpt lat="51.379530965747" lon="4.527174914899">
        <ele>17.2</ele>
        <time>2020-06-13T10:52:40Z</time>
      </trkpt>
      <trkpt lat="51.37977965672" lon="4.527661735651">
        <ele>18.6</ele>
        <time>2020-06-13T10:52:48Z</time>
      </trkpt>
      <trkpt lat="51.379804886239" lon="4.527712697603">
        <ele>18.8</ele>
        <time>2020-06-13T10:52:53Z</time>
      </trkpt>
      <trkpt lat="51.379703968163" lon="4.527612198622">
        <ele>19</ele>
        <time>2020-06-13T10:52:58Z</time>
      </trkpt>
      <trkpt lat="51.379210609529" lon="4.528102455953">
        <ele>16.4</ele>
        <time>2020-06-13T10:53:12Z</time>
      </trkpt>
      <trkpt lat="51.378733092686" lon="4.52853018431">
        <ele>15.8</ele>
        <time>2020-06-13T10:53:24Z</time>
      </trkpt>
      <trkpt lat="51.3782725911" lon="4.52906997867">
        <ele>23</ele>
        <time>2020-06-13T10:53:38Z</time>
      </trkpt>
      <trkpt lat="51.37787361266" lon="4.529599211836">
        <ele>28.8</ele>
        <time>2020-06-13T10:53:53Z</time>
      </trkpt>
      <trkpt lat="51.378158764898" lon="4.530243025575">
        <ele>22</ele>
        <time>2020-06-13T10:54:06Z</time>
      </trkpt>
      <trkpt lat="51.378396559401" lon="4.530712244337">
        <ele>14.2</ele>
        <time>2020-06-13T10:54:17Z</time>
      </trkpt>
      <trkpt lat="51.378313578591" lon="4.530725571558">
        <ele>24.2</ele>
        <time>2020-06-13T10:55:22Z</time>
      </trkpt>
      <trkpt lat="51.378299245542" lon="4.530757087502">
        <ele>24</ele>
        <time>2020-06-13T10:55:25Z</time>
      </trkpt>
      <trkpt lat="51.37820805047" lon="4.530907794064">
        <ele>20.6</ele>
        <time>2020-06-13T10:55:35Z</time>
      </trkpt>
      <trkpt lat="51.378055416071" lon="4.531028241967">
        <ele>15.8</ele>
        <time>2020-06-13T10:56:48Z</time>
      </trkpt>
      <trkpt lat="51.378044184325" lon="4.531034779849">
        <ele>16.6</ele>
        <time>2020-06-13T10:56:49Z</time>
      </trkpt>
      <trkpt lat="51.377802785605" lon="4.531257235475">
        <ele>19.4</ele>
        <time>2020-06-13T10:57:02Z</time>
      </trkpt>
      <trkpt lat="51.377424678096" lon="4.530550473667">
        <ele>28</ele>
        <time>2020-06-13T10:57:25Z</time>
      </trkpt>
      <trkpt lat="51.377175903304" lon="4.529969188902">
        <ele>29</ele>
        <time>2020-06-13T10:57:38Z</time>
      </trkpt>
      <trkpt lat="51.376891002523" lon="4.529683114655">
        <ele>25.2</ele>
        <time>2020-06-13T10:59:34Z</time>
      </trkpt>
      <trkpt lat="51.376885051374" lon="4.529658471869">
        <ele>27.2</ele>
        <time>2020-06-13T10:59:36Z</time>
      </trkpt>
      <trkpt lat="51.376715736994" lon="4.528804188621">
        <ele>33.8</ele>
        <time>2020-06-13T10:59:59Z</time>
      </trkpt>
      <trkpt lat="51.376404768504" lon="4.528061300824">
        <ele>28.4</ele>
        <time>2020-06-13T11:00:15Z</time>
      </trkpt>
      <trkpt lat="51.376127159976" lon="4.527343977822">
        <ele>33.4</ele>
        <time>2020-06-13T11:00:33Z</time>
      </trkpt>
      <trkpt lat="51.376100589353" lon="4.527332578438">
        <ele>33.4</ele>
        <time>2020-06-13T11:00:34Z</time>
      </trkpt>
      <trkpt lat="51.375742263128" lon="4.527148679552">
        <ele>17</ele>
        <time>2020-06-13T11:02:23Z</time>
      </trkpt>
      <trkpt lat="51.375713513211" lon="4.527141052023">
        <ele>18</ele>
        <time>2020-06-13T11:02:26Z</time>
      </trkpt>
      <trkpt lat="51.37568342219" lon="4.527126467517">
        <ele>20.6</ele>
        <time>2020-06-13T11:02:29Z</time>
      </trkpt>
      <trkpt lat="51.375670933159" lon="4.526735368063">
        <ele>30.8</ele>
        <time>2020-06-13T11:02:38Z</time>
      </trkpt>
      <trkpt lat="51.375664311458" lon="4.526725393602">
        <ele>31.2</ele>
        <time>2020-06-13T11:02:39Z</time>
      </trkpt>
      <trkpt lat="51.37564402726" lon="4.526702427196">
        <ele>31.2</ele>
        <time>2020-06-13T11:02:42Z</time>
      </trkpt>
      <trkpt lat="51.375601028113" lon="4.526544344562">
        <ele>29.6</ele>
        <time>2020-06-13T11:02:48Z</time>
      </trkpt>
      <trkpt lat="51.375404975472" lon="4.526100774414">
        <ele>31.6</ele>
        <time>2020-06-13T11:04:30Z</time>
      </trkpt>
      <trkpt lat="51.375442526384" lon="4.525221261647">
        <ele>35.2</ele>
        <time>2020-06-13T11:04:50Z</time>
      </trkpt>
      <trkpt lat="51.375399191961" lon="4.524762939355">
        <ele>33.4</ele>
        <time>2020-06-13T11:05:01Z</time>
      </trkpt>
      <trkpt lat="51.375162654743" lon="4.524758413129">
        <ele>32.8</ele>
        <time>2020-06-13T11:05:10Z</time>
      </trkpt>
      <trkpt lat="51.374910694829" lon="4.524741314053">
        <ele>24.8</ele>
        <time>2020-06-13T11:06:10Z</time>
      </trkpt>
      <trkpt lat="51.374900804187" lon="4.524739470035">
        <ele>26.2</ele>
        <time>2020-06-13T11:06:13Z</time>
      </trkpt>
      <trkpt lat="51.374353382298" lon="4.524841393939">
        <ele>29.4</ele>
        <time>2020-06-13T11:06:35Z</time>
      </trkpt>
      <trkpt lat="51.373790872989" lon="4.524959075815">
        <ele>26.2</ele>
        <time>2020-06-13T11:06:49Z</time>
      </trkpt>
      <trkpt lat="51.373215371735" lon="4.52506175409">
        <ele>23.6</ele>
        <time>2020-06-13T11:07:01Z</time>
      </trkpt>
      <trkpt lat="51.372689658967" lon="4.525107938359">
        <ele>33.6</ele>
        <time>2020-06-13T11:07:17Z</time>
      </trkpt>
      <trkpt lat="51.372738944539" lon="4.524207889937">
        <ele>36.8</ele>
        <time>2020-06-13T11:07:31Z</time>
      </trkpt>
      <trkpt lat="51.372398471761" lon="4.523443712114">
        <ele>23.8</ele>
        <time>2020-06-13T11:07:43Z</time>
      </trkpt>
      <trkpt lat="51.372337619167" lon="4.523472713488">
        <ele>22.8</ele>
        <time>2020-06-13T11:07:45Z</time>
      </trkpt>
      <trkpt lat="51.372114492989" lon="4.523729367266">
        <ele>25</ele>
        <time>2020-06-13T11:07:51Z</time>
      </trkpt>
      <trkpt lat="51.371671593393" lon="4.52427050273">
        <ele>23.8</ele>
        <time>2020-06-13T11:08:02Z</time>
      </trkpt>
      <trkpt lat="51.371215115119" lon="4.524806692873">
        <ele>19.2</ele>
        <time>2020-06-13T11:08:13Z</time>
      </trkpt>
      <trkpt lat="51.370755954637" lon="4.525367777259">
        <ele>17.2</ele>
        <time>2020-06-13T11:08:24Z</time>
      </trkpt>
      <trkpt lat="51.370667525592" lon="4.525466432222">
        <ele>14.6</ele>
        <time>2020-06-13T11:08:26Z</time>
      </trkpt>
      <trkpt lat="51.370233929905" lon="4.525986780574">
        <ele>12.6</ele>
        <time>2020-06-13T11:08:36Z</time>
      </trkpt>
      <trkpt lat="51.369802262055" lon="4.526592121392">
        <ele>18.4</ele>
        <time>2020-06-13T11:08:50Z</time>
      </trkpt>
      <trkpt lat="51.369386268358" lon="4.527157061452">
        <ele>21.2</ele>
        <time>2020-06-13T11:09:00Z</time>
      </trkpt>
      <trkpt lat="51.369117460825" lon="4.527562242498">
        <ele>13.6</ele>
        <time>2020-06-13T11:09:06Z</time>
      </trkpt>
      <trkpt lat="51.369137409747" lon="4.527719570761">
        <ele>12.2</ele>
        <time>2020-06-13T11:09:08Z</time>
      </trkpt>
      <trkpt lat="51.369198513798" lon="4.527887041123">
        <ele>11.4</ele>
        <time>2020-06-13T11:09:10Z</time>
      </trkpt>
      <trkpt lat="51.369553319625" lon="4.528620205916">
        <ele>18</ele>
        <time>2020-06-13T11:09:19Z</time>
      </trkpt>
      <trkpt lat="51.369833945637" lon="4.529449259645">
        <ele>17.2</ele>
        <time>2020-06-13T11:09:30Z</time>
      </trkpt>
      <trkpt lat="51.37014047172" lon="4.530267668361">
        <ele>14.4</ele>
        <time>2020-06-13T11:09:40Z</time>
      </trkpt>
      <trkpt lat="51.370427467976" lon="4.531001084611">
        <ele>18</ele>
        <time>2020-06-13T11:09:49Z</time>
      </trkpt>
      <trkpt lat="51.370678673519" lon="4.531821672621">
        <ele>17.6</ele>
        <time>2020-06-13T11:09:59Z</time>
      </trkpt>
      <trkpt lat="51.370954521848" lon="4.532649804341">
        <ele>18</ele>
        <time>2020-06-13T11:10:09Z</time>
      </trkpt>
      <trkpt lat="51.370992156579" lon="4.532754494272">
        <ele>18.4</ele>
        <time>2020-06-13T11:10:11Z</time>
      </trkpt>
      <trkpt lat="51.371112520663" lon="4.533122375863">
        <ele>20</ele>
        <time>2020-06-13T11:10:31Z</time>
      </trkpt>
      <trkpt lat="51.371328270769" lon="4.533924858969">
        <ele>21</ele>
        <time>2020-06-13T11:10:41Z</time>
      </trkpt>
      <trkpt lat="51.371340508343" lon="4.534012366005">
        <ele>20.8</ele>
        <time>2020-06-13T11:10:42Z</time>
      </trkpt>
      <trkpt lat="51.371345956578" lon="4.534173969037">
        <ele>21</ele>
        <time>2020-06-13T11:10:44Z</time>
      </trkpt>
      <trkpt lat="51.371236405145" lon="4.534321993391">
        <ele>20</ele>
        <time>2020-06-13T11:10:47Z</time>
      </trkpt>
      <trkpt lat="51.370782609079" lon="4.534836893508">
        <ele>20.8</ele>
        <time>2020-06-13T11:10:57Z</time>
      </trkpt>
      <trkpt lat="51.370363178803" lon="4.535481377799">
        <ele>18.2</ele>
        <time>2020-06-13T11:11:08Z</time>
      </trkpt>
      <trkpt lat="51.370002924741" lon="4.536204819588">
        <ele>14.8</ele>
        <time>2020-06-13T11:11:19Z</time>
      </trkpt>
      <trkpt lat="51.369675863003" lon="4.53694980286">
        <ele>15</ele>
        <time>2020-06-13T11:11:31Z</time>
      </trkpt>
      <trkpt lat="51.369359781554" lon="4.537663018731">
        <ele>18</ele>
        <time>2020-06-13T11:11:42Z</time>
      </trkpt>
      <trkpt lat="51.369026768667" lon="4.538354357843">
        <ele>18.4</ele>
        <time>2020-06-13T11:11:52Z</time>
      </trkpt>
      <trkpt lat="51.36874991451" lon="4.539117110743">
        <ele>17</ele>
        <time>2020-06-13T11:12:02Z</time>
      </trkpt>
      <trkpt lat="51.368516143319" lon="4.539988325429">
        <ele>18.2</ele>
        <time>2020-06-13T11:12:13Z</time>
      </trkpt>
      <trkpt lat="51.368286227802" lon="4.540863898703">
        <ele>17.8</ele>
        <time>2020-06-13T11:12:24Z</time>
      </trkpt>
      <trkpt lat="51.368092019179" lon="4.541735113389">
        <ele>18.4</ele>
        <time>2020-06-13T11:12:35Z</time>
      </trkpt>
      <trkpt lat="51.36789076976" lon="4.542599119641">
        <ele>18.4</ele>
        <time>2020-06-13T11:12:47Z</time>
      </trkpt>
      <trkpt lat="51.367667978858" lon="4.543471507793">
        <ele>15.6</ele>
        <time>2020-06-13T11:13:00Z</time>
      </trkpt>
      <trkpt lat="51.367610479024" lon="4.543695807437">
        <ele>15.2</ele>
        <time>2020-06-13T11:13:03Z</time>
      </trkpt>
      <trkpt lat="51.367543256186" lon="4.543791696373">
        <ele>15.6</ele>
        <time>2020-06-13T11:13:05Z</time>
      </trkpt>
      <trkpt lat="51.367426161043" lon="4.54380871163">
        <ele>15.8</ele>
        <time>2020-06-13T11:13:07Z</time>
      </trkpt>
      <trkpt lat="51.366856527119" lon="4.543988671023">
        <ele>18.4</ele>
        <time>2020-06-13T11:13:18Z</time>
      </trkpt>
      <trkpt lat="51.366325701392" lon="4.544185394216">
        <ele>18</ele>
        <time>2020-06-13T11:13:28Z</time>
      </trkpt>
      <trkpt lat="51.365771741621" lon="4.544381698314">
        <ele>16.2</ele>
        <time>2020-06-13T11:13:39Z</time>
      </trkpt>
      <trkpt lat="51.365225744655" lon="4.544595604402">
        <ele>15</ele>
        <time>2020-06-13T11:13:50Z</time>
      </trkpt>
      <trkpt lat="51.364683435725" lon="4.544795009803">
        <ele>16</ele>
        <time>2020-06-13T11:14:00Z</time>
      </trkpt>
      <trkpt lat="51.364575225396" lon="4.544832812172">
        <ele>16</ele>
        <time>2020-06-13T11:14:02Z</time>
      </trkpt>
      <trkpt lat="51.364268364037" lon="4.544719405065">
        <ele>15.4</ele>
        <time>2020-06-13T11:14:08Z</time>
      </trkpt>
      <trkpt lat="51.363859997869" lon="4.544244235154">
        <ele>15.8</ele>
        <time>2020-06-13T11:14:17Z</time>
      </trkpt>
      <trkpt lat="51.363369908176" lon="4.543727826295">
        <ele>16</ele>
        <time>2020-06-13T11:14:28Z</time>
      </trkpt>
      <trkpt lat="51.362894738265" lon="4.543248716891">
        <ele>18.2</ele>
        <time>2020-06-13T11:14:39Z</time>
      </trkpt>
      <trkpt lat="51.362542195551" lon="4.542914111443">
        <ele>20.4</ele>
        <time>2020-06-13T11:14:47Z</time>
      </trkpt>
      <trkpt lat="51.362140115808" lon="4.542526532387">
        <ele>18.6</ele>
        <time>2020-06-13T11:14:56Z</time>
      </trkpt>
      <trkpt lat="51.362042550492" lon="4.542461656481">
        <ele>18.4</ele>
        <time>2020-06-13T11:14:58Z</time>
      </trkpt>
      <trkpt lat="51.361559417776" lon="4.541963436345">
        <ele>17.2</ele>
        <time>2020-06-13T11:15:09Z</time>
      </trkpt>
      <trkpt lat="51.361063125477" lon="4.541454822653">
        <ele>18.4</ele>
        <time>2020-06-13T11:15:20Z</time>
      </trkpt>
      <trkpt lat="51.36055996002" lon="4.540967750444">
        <ele>18</ele>
        <time>2020-06-13T11:15:31Z</time>
      </trkpt>
      <trkpt lat="51.360473207355" lon="4.540889631136">
        <ele>17.8</ele>
        <time>2020-06-13T11:15:33Z</time>
      </trkpt>
      <trkpt lat="51.360028631379" lon="4.540395434312">
        <ele>17.6</ele>
        <time>2020-06-13T11:15:44Z</time>
      </trkpt>
      <trkpt lat="51.359700647632" lon="4.54001087274">
        <ele>17.8</ele>
        <time>2020-06-13T11:15:52Z</time>
      </trkpt>
      <trkpt lat="51.359240229865" lon="4.539548275679">
        <ele>17.2</ele>
        <time>2020-06-13T11:16:02Z</time>
      </trkpt>
      <trkpt lat="51.359033196935" lon="4.539300674353">
        <ele>16.8</ele>
        <time>2020-06-13T11:16:07Z</time>
      </trkpt>
      <trkpt lat="51.358521062845" lon="4.538833299609">
        <ele>18</ele>
        <time>2020-06-13T11:16:17Z</time>
      </trkpt>
      <trkpt lat="51.358036756663" lon="4.53834706559">
        <ele>18.6</ele>
        <time>2020-06-13T11:16:28Z</time>
      </trkpt>
      <trkpt lat="51.357570303928" lon="4.537874410249">
        <ele>19.6</ele>
        <time>2020-06-13T11:16:38Z</time>
      </trkpt>
      <trkpt lat="51.357093960551" lon="4.537385494022">
        <ele>19</ele>
        <time>2020-06-13T11:16:49Z</time>
      </trkpt>
      <trkpt lat="51.356895896254" lon="4.537196146901">
        <ele>18.8</ele>
        <time>2020-06-13T11:16:54Z</time>
      </trkpt>
      <trkpt lat="51.356855663134" lon="4.537077878292">
        <ele>18.4</ele>
        <time>2020-06-13T11:16:56Z</time>
      </trkpt>
      <trkpt lat="51.356826242665" lon="4.536917532545">
        <ele>17</ele>
        <time>2020-06-13T11:16:59Z</time>
      </trkpt>
      <trkpt lat="51.356771005944" lon="4.536888698809">
        <ele>16.2</ele>
        <time>2020-06-13T11:17:01Z</time>
      </trkpt>
      <trkpt lat="51.356620383201" lon="4.536943516435">
        <ele>15.6</ele>
        <time>2020-06-13T11:17:05Z</time>
      </trkpt>
      <trkpt lat="51.356089725112" lon="4.536551746429">
        <ele>13.6</ele>
        <time>2020-06-13T11:17:15Z</time>
      </trkpt>
      <trkpt lat="51.355541213576" lon="4.536166346667">
        <ele>15.8</ele>
        <time>2020-06-13T11:17:25Z</time>
      </trkpt>
      <trkpt lat="51.355023379794" lon="4.535785389312">
        <ele>17.8</ele>
        <time>2020-06-13T11:17:35Z</time>
      </trkpt>
      <trkpt lat="51.354516693939" lon="4.535424883793">
        <ele>18.4</ele>
        <time>2020-06-13T11:17:45Z</time>
      </trkpt>
      <trkpt lat="51.354008918437" lon="4.535043339705">
        <ele>17.6</ele>
        <time>2020-06-13T11:17:56Z</time>
      </trkpt>
      <trkpt lat="51.353496113795" lon="4.534691216086">
        <ele>19.8</ele>
        <time>2020-06-13T11:18:07Z</time>
      </trkpt>
      <trkpt lat="51.353419587048" lon="4.534603625231">
        <ele>19.8</ele>
        <time>2020-06-13T11:18:08Z</time>
      </trkpt>
      <trkpt lat="51.353406930379" lon="4.53453581566">
        <ele>19.6</ele>
        <time>2020-06-13T11:18:10Z</time>
      </trkpt>
      <trkpt lat="51.353431908441" lon="4.534395670292">
        <ele>19</ele>
        <time>2020-06-13T11:18:12Z</time>
      </trkpt>
      <trkpt lat="51.353797359281" lon="4.533683627887">
        <ele>18.4</ele>
        <time>2020-06-13T11:18:22Z</time>
      </trkpt>
      <trkpt lat="51.354129533978" lon="4.532983320142">
        <ele>19.6</ele>
        <time>2020-06-13T11:18:32Z</time>
      </trkpt>
      <trkpt lat="51.354289544449" lon="4.532561794391">
        <ele>19.2</ele>
        <time>2020-06-13T11:18:38Z</time>
      </trkpt>
      <trkpt lat="51.35427772597" lon="4.532411590743">
        <ele>18.4</ele>
        <time>2020-06-13T11:18:40Z</time>
      </trkpt>
      <trkpt lat="51.354212598607" lon="4.532274546678">
        <ele>18</ele>
        <time>2020-06-13T11:18:42Z</time>
      </trkpt>
      <trkpt lat="51.353833736727" lon="4.531621093754">
        <ele>16.4</ele>
        <time>2020-06-13T11:18:52Z</time>
      </trkpt>
      <trkpt lat="51.353468704982" lon="4.530962276414">
        <ele>15.8</ele>
        <time>2020-06-13T11:19:02Z</time>
      </trkpt>
      <trkpt lat="51.353089675464" lon="4.530269512379">
        <ele>17</ele>
        <time>2020-06-13T11:19:13Z</time>
      </trkpt>
      <trkpt lat="51.35270863429" lon="4.529573395584">
        <ele>15.8</ele>
        <time>2020-06-13T11:19:24Z</time>
      </trkpt>
      <trkpt lat="51.352211922896" lon="4.529165197054">
        <ele>13.4</ele>
        <time>2020-06-13T11:19:37Z</time>
      </trkpt>
      <trkpt lat="51.351667434672" lon="4.529087832117">
        <ele>15.2</ele>
        <time>2020-06-13T11:19:47Z</time>
      </trkpt>
      <trkpt lat="51.35112696976" lon="4.5290004089">
        <ele>15.8</ele>
        <time>2020-06-13T11:19:58Z</time>
      </trkpt>
      <trkpt lat="51.350552558153" lon="4.528901921575">
        <ele>16.8</ele>
        <time>2020-06-13T11:20:09Z</time>
      </trkpt>
      <trkpt lat="51.350013434345" lon="4.528830591606">
        <ele>19.4</ele>
        <time>2020-06-13T11:20:20Z</time>
      </trkpt>
      <trkpt lat="51.349433155408" lon="4.528728164788">
        <ele>22.4</ele>
        <time>2020-06-13T11:20:31Z</time>
      </trkpt>
      <trkpt lat="51.348857235059" lon="4.528622888124">
        <ele>26</ele>
        <time>2020-06-13T11:20:44Z</time>
      </trkpt>
      <trkpt lat="51.348285589479" lon="4.528529010844">
        <ele>26.4</ele>
        <time>2020-06-13T11:20:57Z</time>
      </trkpt>
      <trkpt lat="51.347740430703" lon="4.528444353654">
        <ele>27.4</ele>
        <time>2020-06-13T11:21:07Z</time>
      </trkpt>
      <trkpt lat="51.347193008814" lon="4.528334215488">
        <ele>27</ele>
        <time>2020-06-13T11:21:17Z</time>
      </trkpt>
      <trkpt lat="51.34661918394" lon="4.528208151712">
        <ele>30</ele>
        <time>2020-06-13T11:21:29Z</time>
      </trkpt>
      <trkpt lat="51.346036306614" lon="4.528141599426">
        <ele>30.8</ele>
        <time>2020-06-13T11:21:42Z</time>
      </trkpt>
      <trkpt lat="51.345458206971" lon="4.528048141241">
        <ele>29.6</ele>
        <time>2020-06-13T11:21:56Z</time>
      </trkpt>
      <trkpt lat="51.344903325191" lon="4.527921826008">
        <ele>29.4</ele>
        <time>2020-06-13T11:22:06Z</time>
      </trkpt>
      <trkpt lat="51.344342240805" lon="4.527794002033">
        <ele>26</ele>
        <time>2020-06-13T11:22:16Z</time>
      </trkpt>
      <trkpt lat="51.343794148364" lon="4.527667183886">
        <ele>22.8</ele>
        <time>2020-06-13T11:22:26Z</time>
      </trkpt>
      <trkpt lat="51.343237757842" lon="4.527548244725">
        <ele>22.6</ele>
        <time>2020-06-13T11:22:37Z</time>
      </trkpt>
      <trkpt lat="51.34267549999" lon="4.527486051027">
        <ele>26.6</ele>
        <time>2020-06-13T11:22:48Z</time>
      </trkpt>
      <trkpt lat="51.342111649577" lon="4.527389156263">
        <ele>31.8</ele>
        <time>2020-06-13T11:22:59Z</time>
      </trkpt>
      <trkpt lat="51.341536902694" lon="4.527256722243">
        <ele>33.2</ele>
        <time>2020-06-13T11:23:10Z</time>
      </trkpt>
      <trkpt lat="51.340991743918" lon="4.527164353705">
        <ele>29</ele>
        <time>2020-06-13T11:23:19Z</time>
      </trkpt>
      <trkpt lat="51.340442980925" lon="4.527090928261">
        <ele>31.2</ele>
        <time>2020-06-13T11:23:30Z</time>
      </trkpt>
      <trkpt lat="51.339875777752" lon="4.527010462021">
        <ele>33.8</ele>
        <time>2020-06-13T11:23:41Z</time>
      </trkpt>
      <trkpt lat="51.339338162686" lon="4.52691247761">
        <ele>26.4</ele>
        <time>2020-06-13T11:23:50Z</time>
      </trkpt>
      <trkpt lat="51.338752435514" lon="4.526775349726">
        <ele>17.6</ele>
        <time>2020-06-13T11:23:59Z</time>
      </trkpt>
      <trkpt lat="51.338394696022" lon="4.526677449134">
        <ele>15.8</ele>
        <time>2020-06-13T11:24:05Z</time>
      </trkpt>
      <trkpt lat="51.337842244993" lon="4.526469158919">
        <ele>15.4</ele>
        <time>2020-06-13T11:24:15Z</time>
      </trkpt>
      <trkpt lat="51.337788936109" lon="4.526451054015">
        <ele>15.6</ele>
        <time>2020-06-13T11:24:16Z</time>
      </trkpt>
      <trkpt lat="51.337683072712" lon="4.526415179483">
        <ele>15.6</ele>
        <time>2020-06-13T11:24:18Z</time>
      </trkpt>
      <trkpt lat="51.33712165305" lon="4.526435798957">
        <ele>15.2</ele>
        <time>2020-06-13T11:24:29Z</time>
      </trkpt>
      <trkpt lat="51.337070439641" lon="4.526448371807">
        <ele>15.4</ele>
        <time>2020-06-13T11:24:30Z</time>
      </trkpt>
      <trkpt lat="51.33693222211" lon="4.526537974318">
        <ele>16.4</ele>
        <time>2020-06-13T11:24:33Z</time>
      </trkpt>
      <trkpt lat="51.336837171364" lon="4.526524479459">
        <ele>17</ele>
        <time>2020-06-13T11:24:35Z</time>
      </trkpt>
      <trkpt lat="51.336763578282" lon="4.526424399573">
        <ele>17.2</ele>
        <time>2020-06-13T11:24:37Z</time>
      </trkpt>
      <trkpt lat="51.336687302992" lon="4.526325493153">
        <ele>17.4</ele>
        <time>2020-06-13T11:24:39Z</time>
      </trkpt>
      <trkpt lat="51.336598035757" lon="4.526268915328">
        <ele>18</ele>
        <time>2020-06-13T11:24:41Z</time>
      </trkpt>
      <trkpt lat="51.336069976057" lon="4.526014608482">
        <ele>17.6</ele>
        <time>2020-06-13T11:24:52Z</time>
      </trkpt>
      <trkpt lat="51.335546610221" lon="4.52577002464">
        <ele>15</ele>
        <time>2020-06-13T11:25:02Z</time>
      </trkpt>
      <trkpt lat="51.335001199988" lon="4.525513203224">
        <ele>15.6</ele>
        <time>2020-06-13T11:25:12Z</time>
      </trkpt>
      <trkpt lat="51.334482528016" lon="4.525263674061">
        <ele>14.6</ele>
        <time>2020-06-13T11:25:22Z</time>
      </trkpt>
      <trkpt lat="51.333954552135" lon="4.52501146269">
        <ele>12.6</ele>
        <time>2020-06-13T11:25:32Z</time>
      </trkpt>
      <trkpt lat="51.333404112762" lon="4.524769896332">
        <ele>13.8</ele>
        <time>2020-06-13T11:25:42Z</time>
      </trkpt>
      <trkpt lat="51.332878483813" lon="4.524543417394">
        <ele>15</ele>
        <time>2020-06-13T11:25:52Z</time>
      </trkpt>
      <trkpt lat="51.332551505894" lon="4.52442472969">
        <ele>17.4</ele>
        <time>2020-06-13T11:25:58Z</time>
      </trkpt>
      <trkpt lat="51.332398703857" lon="4.524412324478">
        <ele>18.2</ele>
        <time>2020-06-13T11:26:01Z</time>
      </trkpt>
      <trkpt lat="51.331856311108" lon="4.52416740536">
        <ele>15.8</ele>
        <time>2020-06-13T11:26:12Z</time>
      </trkpt>
      <trkpt lat="51.331754219566" lon="4.524109989345">
        <ele>16</ele>
        <time>2020-06-13T11:26:14Z</time>
      </trkpt>
      <trkpt lat="51.331240409096" lon="4.523791225688">
        <ele>14.6</ele>
        <time>2020-06-13T11:26:24Z</time>
      </trkpt>
      <trkpt lat="51.330696591424" lon="4.523537757032">
        <ele>13</ele>
        <time>2020-06-13T11:26:34Z</time>
      </trkpt>
      <trkpt lat="51.330145900594" lon="4.523276493209">
        <ele>13.2</ele>
        <time>2020-06-13T11:26:44Z</time>
      </trkpt>
      <trkpt lat="51.32962320531" lon="4.523048924624">
        <ele>12.2</ele>
        <time>2020-06-13T11:26:53Z</time>
      </trkpt>
      <trkpt lat="51.329091876669" lon="4.522818338555">
        <ele>11.6</ele>
        <time>2020-06-13T11:27:03Z</time>
      </trkpt>
      <trkpt lat="51.329049296617" lon="4.522784056584">
        <ele>11.6</ele>
        <time>2020-06-13T11:27:04Z</time>
      </trkpt>
      <trkpt lat="51.329021133433" lon="4.522728568406">
        <ele>11.4</ele>
        <time>2020-06-13T11:27:05Z</time>
      </trkpt>
      <trkpt lat="51.328640427535" lon="4.521931282078">
        <ele>9</ele>
        <time>2020-06-13T11:27:54Z</time>
      </trkpt>
      <trkpt lat="51.328268606451" lon="4.521220496958">
        <ele>8.6</ele>
        <time>2020-06-13T11:28:04Z</time>
      </trkpt>
      <trkpt lat="51.327902652697" lon="4.52056737931">
        <ele>9</ele>
        <time>2020-06-13T11:28:13Z</time>
      </trkpt>
      <trkpt lat="51.327502836067" lon="4.519874782913">
        <ele>9.6</ele>
        <time>2020-06-13T11:28:23Z</time>
      </trkpt>
      <trkpt lat="51.327101678333" lon="4.519189143493">
        <ele>12.6</ele>
        <time>2020-06-13T11:28:33Z</time>
      </trkpt>
      <trkpt lat="51.326706387929" lon="4.518507527385">
        <ele>13.8</ele>
        <time>2020-06-13T11:28:43Z</time>
      </trkpt>
      <trkpt lat="51.32634839698" lon="4.517848877683">
        <ele>15.2</ele>
        <time>2020-06-13T11:28:53Z</time>
      </trkpt>
      <trkpt lat="51.326073805936" lon="4.517333223195">
        <ele>12.4</ele>
        <time>2020-06-13T11:29:01Z</time>
      </trkpt>
      <trkpt lat="51.326045894209" lon="4.517201878822">
        <ele>10.4</ele>
        <time>2020-06-13T11:29:03Z</time>
      </trkpt>
      <trkpt lat="51.326013372437" lon="4.516970370744">
        <ele>7.8</ele>
        <time>2020-06-13T11:29:06Z</time>
      </trkpt>
      <trkpt lat="51.325642808638" lon="4.516278109623">
        <ele>5.2</ele>
        <time>2020-06-13T11:29:17Z</time>
      </trkpt>
      <trkpt lat="51.325269394993" lon="4.515650137675">
        <ele>9.2</ele>
        <time>2020-06-13T11:29:27Z</time>
      </trkpt>
      <trkpt lat="51.324826495397" lon="4.515024596478">
        <ele>11.6</ele>
        <time>2020-06-13T11:29:38Z</time>
      </trkpt>
      <trkpt lat="51.324398264126" lon="4.51449385457">
        <ele>11.6</ele>
        <time>2020-06-13T11:29:47Z</time>
      </trkpt>
      <trkpt lat="51.323941702033" lon="4.513931931994">
        <ele>12.6</ele>
        <time>2020-06-13T11:29:57Z</time>
      </trkpt>
      <trkpt lat="51.323665266971" lon="4.513554327399">
        <ele>10.6</ele>
        <time>2020-06-13T11:30:04Z</time>
      </trkpt>
      <trkpt lat="51.323639031624" lon="4.513416528963">
        <ele>11.4</ele>
        <time>2020-06-13T11:30:06Z</time>
      </trkpt>
      <trkpt lat="51.323700973865" lon="4.513248136592">
        <ele>13.6</ele>
        <time>2020-06-13T11:30:09Z</time>
      </trkpt>
      <trkpt lat="51.324168097152" lon="4.512708593689">
        <ele>20</ele>
        <time>2020-06-13T11:30:20Z</time>
      </trkpt>
      <trkpt lat="51.324251497057" lon="4.512340041546">
        <ele>21.2</ele>
        <time>2020-06-13T11:30:27Z</time>
      </trkpt>
      <trkpt lat="51.323862157802" lon="4.511738221126">
        <ele>16</ele>
        <time>2020-06-13T11:30:37Z</time>
      </trkpt>
      <trkpt lat="51.323434597083" lon="4.511112344653">
        <ele>11.2</ele>
        <time>2020-06-13T11:30:48Z</time>
      </trkpt>
      <trkpt lat="51.32332253108" lon="4.510935821839">
        <ele>9.8</ele>
        <time>2020-06-13T11:30:51Z</time>
      </trkpt>
      <trkpt lat="51.322865801349" lon="4.510359147119">
        <ele>13.8</ele>
        <time>2020-06-13T11:31:02Z</time>
      </trkpt>
      <trkpt lat="51.322443018313" lon="4.509746681686">
        <ele>15.6</ele>
        <time>2020-06-13T11:31:14Z</time>
      </trkpt>
      <trkpt lat="51.322042531131" lon="4.509122313955">
        <ele>19.6</ele>
        <time>2020-06-13T11:31:26Z</time>
      </trkpt>
      <trkpt lat="51.321581191355" lon="4.508584782708">
        <ele>15.4</ele>
        <time>2020-06-13T11:31:36Z</time>
      </trkpt>
      <trkpt lat="51.321120941226" lon="4.50802386596">
        <ele>16.2</ele>
        <time>2020-06-13T11:31:47Z</time>
      </trkpt>
      <trkpt lat="51.320778372973" lon="4.507523717987">
        <ele>9.6</ele>
        <time>2020-06-13T11:31:56Z</time>
      </trkpt>
      <trkpt lat="51.320720370225" lon="4.507378292022">
        <ele>8.8</ele>
        <time>2020-06-13T11:31:58Z</time>
      </trkpt>
      <trkpt lat="51.32068977629" lon="4.507143012089">
        <ele>8.6</ele>
        <time>2020-06-13T11:32:01Z</time>
      </trkpt>
      <trkpt lat="51.320640574537" lon="4.506750571531">
        <ele>10</ele>
        <time>2020-06-13T11:32:08Z</time>
      </trkpt>
      <trkpt lat="51.320056523745" lon="4.506813351962">
        <ele>8.4</ele>
        <time>2020-06-13T11:32:19Z</time>
      </trkpt>
      <trkpt lat="51.3194987083" lon="4.506840006404">
        <ele>7.2</ele>
        <time>2020-06-13T11:32:30Z</time>
      </trkpt>
      <trkpt lat="51.318959668311" lon="4.50688392756">
        <ele>5.4</ele>
        <time>2020-06-13T11:32:40Z</time>
      </trkpt>
      <trkpt lat="51.318403780703" lon="4.506933129313">
        <ele>10.8</ele>
        <time>2020-06-13T11:32:50Z</time>
      </trkpt>
      <trkpt lat="51.317844288878" lon="4.506939499557">
        <ele>9</ele>
        <time>2020-06-13T11:33:01Z</time>
      </trkpt>
      <trkpt lat="51.317295777342" lon="4.506951318036">
        <ele>10</ele>
        <time>2020-06-13T11:33:11Z</time>
      </trkpt>
      <trkpt lat="51.31720625865" lon="4.506993311355">
        <ele>8.2</ele>
        <time>2020-06-13T11:33:12Z</time>
      </trkpt>
      <trkpt lat="51.317157978906" lon="4.507013176458">
        <ele>7.6</ele>
        <time>2020-06-13T11:33:14Z</time>
      </trkpt>
      <trkpt lat="51.316578873435" lon="4.507019798159">
        <ele>7.6</ele>
        <time>2020-06-13T11:33:25Z</time>
      </trkpt>
      <trkpt lat="51.316007227855" lon="4.507001190341">
        <ele>10.4</ele>
        <time>2020-06-13T11:33:36Z</time>
      </trkpt>
      <trkpt lat="51.315420327217" lon="4.507014098467">
        <ele>13.4</ele>
        <time>2020-06-13T11:33:47Z</time>
      </trkpt>
      <trkpt lat="51.314841640841" lon="4.50704737461">
        <ele>10.6</ele>
        <time>2020-06-13T11:33:58Z</time>
      </trkpt>
      <trkpt lat="51.31428265193" lon="4.507070173378">
        <ele>7.8</ele>
        <time>2020-06-13T11:34:09Z</time>
      </trkpt>
      <trkpt lat="51.313703211183" lon="4.507099426209">
        <ele>7</ele>
        <time>2020-06-13T11:34:20Z</time>
      </trkpt>
      <trkpt lat="51.313137013838" lon="4.50710101877">
        <ele>9</ele>
        <time>2020-06-13T11:34:31Z</time>
      </trkpt>
      <trkpt lat="51.312583054067" lon="4.507154076197">
        <ele>10</ele>
        <time>2020-06-13T11:34:42Z</time>
      </trkpt>
      <trkpt lat="51.312018784559" lon="4.507187268521">
        <ele>11.4</ele>
        <time>2020-06-13T11:34:53Z</time>
      </trkpt>
      <trkpt lat="51.311462310218" lon="4.507225154709">
        <ele>11.2</ele>
        <time>2020-06-13T11:35:04Z</time>
      </trkpt>
      <trkpt lat="51.310877672693" lon="4.50723512917">
        <ele>9</ele>
        <time>2020-06-13T11:35:15Z</time>
      </trkpt>
      <trkpt lat="51.310303009629" lon="4.507233536609">
        <ele>7.2</ele>
        <time>2020-06-13T11:35:26Z</time>
      </trkpt>
      <trkpt lat="51.309732537515" lon="4.507270752245">
        <ele>6.4</ele>
        <time>2020-06-13T11:35:37Z</time>
      </trkpt>
      <trkpt lat="51.309156114252" lon="4.507318864351">
        <ele>8</ele>
        <time>2020-06-13T11:35:49Z</time>
      </trkpt>
      <trkpt lat="51.308590336002" lon="4.507347949544">
        <ele>7.8</ele>
        <time>2020-06-13T11:36:01Z</time>
      </trkpt>
      <trkpt lat="51.308378776846" lon="4.507370580674">
        <ele>8.8</ele>
        <time>2020-06-13T11:36:06Z</time>
      </trkpt>
      <trkpt lat="51.308082811957" lon="4.507379465488">
        <ele>9.2</ele>
        <time>2020-06-13T11:36:15Z</time>
      </trkpt>
      <trkpt lat="51.307847448205" lon="4.507215515524">
        <ele>7.6</ele>
        <time>2020-06-13T11:36:37Z</time>
      </trkpt>
      <trkpt lat="51.307381749841" lon="4.506767838245">
        <ele>8.6</ele>
        <time>2020-06-13T11:36:47Z</time>
      </trkpt>
      <trkpt lat="51.306883445886" lon="4.506347988874">
        <ele>6.4</ele>
        <time>2020-06-13T11:36:57Z</time>
      </trkpt>
      <trkpt lat="51.306395703125" lon="4.505936856679">
        <ele>4.8</ele>
        <time>2020-06-13T11:37:07Z</time>
      </trkpt>
      <trkpt lat="51.305882479388" lon="4.505497980395">
        <ele>4.6</ele>
        <time>2020-06-13T11:37:18Z</time>
      </trkpt>
      <trkpt lat="51.305373362782" lon="4.505023229579">
        <ele>4</ele>
        <time>2020-06-13T11:37:29Z</time>
      </trkpt>
      <trkpt lat="51.304873382447" lon="4.504589047159">
        <ele>1.2</ele>
        <time>2020-06-13T11:37:39Z</time>
      </trkpt>
      <trkpt lat="51.304340712702" lon="4.504241365947">
        <ele>4.2</ele>
        <time>2020-06-13T11:37:49Z</time>
      </trkpt>
      <trkpt lat="51.303853724312" lon="4.503814308142">
        <ele>2.2</ele>
        <time>2020-06-13T11:37:59Z</time>
      </trkpt>
      <trkpt lat="51.303347122276" lon="4.503357243135">
        <ele>3</ele>
        <time>2020-06-13T11:38:11Z</time>
      </trkpt>
      <trkpt lat="51.302836832204" lon="4.502964802577">
        <ele>2.2</ele>
        <time>2020-06-13T11:38:24Z</time>
      </trkpt>
      <trkpt lat="51.302331571272" lon="4.502530787795">
        <ele>0.6</ele>
        <time>2020-06-13T11:38:35Z</time>
      </trkpt>
      <trkpt lat="51.301835027516" lon="4.50208528981">
        <ele>1.6</ele>
        <time>2020-06-13T11:38:45Z</time>
      </trkpt>
      <trkpt lat="51.301349547868" lon="4.501665775715">
        <ele>1.8</ele>
        <time>2020-06-13T11:38:55Z</time>
      </trkpt>
      <trkpt lat="51.300827523136" lon="4.501247267448">
        <ele>2.4</ele>
        <time>2020-06-13T11:39:06Z</time>
      </trkpt>
      <trkpt lat="51.300317065426" lon="4.500791040631">
        <ele>3</ele>
        <time>2020-06-13T11:39:17Z</time>
      </trkpt>
      <trkpt lat="51.299821778955" lon="4.500355600926">
        <ele>4.4</ele>
        <time>2020-06-13T11:39:28Z</time>
      </trkpt>
      <trkpt lat="51.299337808049" lon="4.499943295265">
        <ele>4.2</ele>
        <time>2020-06-13T11:39:39Z</time>
      </trkpt>
      <trkpt lat="51.298847466899" lon="4.499572312371">
        <ele>2.6</ele>
        <time>2020-06-13T11:39:49Z</time>
      </trkpt>
      <trkpt lat="51.298334494619" lon="4.499176099958">
        <ele>2.8</ele>
        <time>2020-06-13T11:40:00Z</time>
      </trkpt>
      <trkpt lat="51.297843818193" lon="4.498786341608">
        <ele>1.6</ele>
        <time>2020-06-13T11:40:10Z</time>
      </trkpt>
      <trkpt lat="51.297365630798" lon="4.498384094227">
        <ele>2.2</ele>
        <time>2020-06-13T11:40:20Z</time>
      </trkpt>
      <trkpt lat="51.296875373467" lon="4.497984445235">
        <ele>4.6</ele>
        <time>2020-06-13T11:40:32Z</time>
      </trkpt>
      <trkpt lat="51.296629029426" lon="4.49774262742">
        <ele>5.6</ele>
        <time>2020-06-13T11:40:38Z</time>
      </trkpt>
      <trkpt lat="51.296594076903" lon="4.497626873381">
        <ele>5.2</ele>
        <time>2020-06-13T11:40:40Z</time>
      </trkpt>
      <trkpt lat="51.296660713008" lon="4.49745177549">
        <ele>6</ele>
        <time>2020-06-13T11:40:43Z</time>
      </trkpt>
      <trkpt lat="51.296805971335" lon="4.497040643295">
        <ele>5</ele>
        <time>2020-06-13T11:40:49Z</time>
      </trkpt>
      <trkpt lat="51.296719637765" lon="4.496742750569">
        <ele>4.4</ele>
        <time>2020-06-13T11:40:54Z</time>
      </trkpt>
      <trkpt lat="51.296252598297" lon="4.496200944553">
        <ele>8.8</ele>
        <time>2020-06-13T11:41:05Z</time>
      </trkpt>
      <trkpt lat="51.295813805832" lon="4.495574481347">
        <ele>8.2</ele>
        <time>2020-06-13T11:41:16Z</time>
      </trkpt>
      <trkpt lat="51.295433016115" lon="4.49487601762">
        <ele>7</ele>
        <time>2020-06-13T11:41:27Z</time>
      </trkpt>
      <trkpt lat="51.295157419243" lon="4.49440998398">
        <ele>8</ele>
        <time>2020-06-13T11:41:35Z</time>
      </trkpt>
      <trkpt lat="51.2950654698" lon="4.494345191893">
        <ele>7.6</ele>
        <time>2020-06-13T11:41:37Z</time>
      </trkpt>
      <trkpt lat="51.294930772667" lon="4.494311580474">
        <ele>6</ele>
        <time>2020-06-13T11:41:40Z</time>
      </trkpt>
      <trkpt lat="51.294843433269" lon="4.494295319588">
        <ele>5.8</ele>
        <time>2020-06-13T11:41:42Z</time>
      </trkpt>
      <trkpt lat="51.29471678276" lon="4.494253326269">
        <ele>5.2</ele>
        <time>2020-06-13T11:41:45Z</time>
      </trkpt>
      <trkpt lat="51.294174557649" lon="4.494344018427">
        <ele>5</ele>
        <time>2020-06-13T11:41:57Z</time>
      </trkpt>
      <trkpt lat="51.293614395272" lon="4.494467064719">
        <ele>1.8</ele>
        <time>2020-06-13T11:42:09Z</time>
      </trkpt>
      <trkpt lat="51.293437537182" lon="4.49450218488">
        <ele>1.2</ele>
        <time>2020-06-13T11:42:13Z</time>
      </trkpt>
      <trkpt lat="51.293279706005" lon="4.494539316697">
        <ele>6.6</ele>
        <time>2020-06-13T11:42:16Z</time>
      </trkpt>
      <trkpt lat="51.293091029436" lon="4.494568318071">
        <ele>4.2</ele>
        <time>2020-06-13T11:42:21Z</time>
      </trkpt>
      <trkpt lat="51.292843847205" lon="4.494555242307">
        <ele>8.6</ele>
        <time>2020-06-13T11:42:26Z</time>
      </trkpt>
      <trkpt lat="51.292326683975" lon="4.494180403739">
        <ele>6.4</ele>
        <time>2020-06-13T11:42:37Z</time>
      </trkpt>
      <trkpt lat="51.29184598201" lon="4.493764410042">
        <ele>5.2</ele>
        <time>2020-06-13T11:42:47Z</time>
      </trkpt>
      <trkpt lat="51.291373159031" lon="4.493234506324">
        <ele>6.2</ele>
        <time>2020-06-13T11:42:58Z</time>
      </trkpt>
      <trkpt lat="51.291172244888" lon="4.493015906372">
        <ele>8.2</ele>
        <time>2020-06-13T11:43:03Z</time>
      </trkpt>
      <trkpt lat="51.289184225846" lon="4.492258517888">
        <ele>5</ele>
        <time>2020-06-13T11:44:50Z</time>
      </trkpt>
      <trkpt lat="51.289162684363" lon="4.492143434401">
        <ele>4.4</ele>
        <time>2020-06-13T11:44:51Z</time>
      </trkpt>
      <trkpt lat="51.289072914214" lon="4.492003624309">
        <ele>4.4</ele>
        <time>2020-06-13T11:44:55Z</time>
      </trkpt>
      <trkpt lat="51.288587183109" lon="4.491602969489">
        <ele>3.4</ele>
        <time>2020-06-13T11:45:05Z</time>
      </trkpt>
      <trkpt lat="51.288183426986" lon="4.49089210055">
        <ele>3.2</ele>
        <time>2020-06-13T11:45:15Z</time>
      </trkpt>
      <trkpt lat="51.287825016942" lon="4.490117445352">
        <ele>2.6</ele>
        <time>2020-06-13T11:45:24Z</time>
      </trkpt>
      <trkpt lat="51.287449926917" lon="4.489377155944">
        <ele>2.8</ele>
        <time>2020-06-13T11:45:33Z</time>
      </trkpt>
      <trkpt lat="51.286926728719" lon="4.488684224271">
        <ele>3.2</ele>
        <time>2020-06-13T11:45:44Z</time>
      </trkpt>
      <trkpt lat="51.286471088635" lon="4.488138814038">
        <ele>2.6</ele>
        <time>2020-06-13T11:45:54Z</time>
      </trkpt>
      <trkpt lat="51.285989632299" lon="4.487606479569">
        <ele>3</ele>
        <time>2020-06-13T11:46:05Z</time>
      </trkpt>
      <trkpt lat="51.2855436314" lon="4.487059309137">
        <ele>4</ele>
        <time>2020-06-13T11:46:16Z</time>
      </trkpt>
      <trkpt lat="51.285395774684" lon="4.48685956846">
        <ele>3.8</ele>
        <time>2020-06-13T11:46:20Z</time>
      </trkpt>
      <trkpt lat="51.284940302238" lon="4.486272248727">
        <ele>2.4</ele>
        <time>2020-06-13T11:46:32Z</time>
      </trkpt>
      <trkpt lat="51.284522883618" lon="4.48571543911">
        <ele>2.2</ele>
        <time>2020-06-13T11:46:42Z</time>
      </trkpt>
      <trkpt lat="51.284217782458" lon="4.48525946375">
        <ele>2.2</ele>
        <time>2020-06-13T11:46:50Z</time>
      </trkpt>
      <trkpt lat="51.284151649267" lon="4.484953272943">
        <ele>3</ele>
        <time>2020-06-13T11:46:54Z</time>
      </trkpt>
      <trkpt lat="51.284150224344" lon="4.484788149513">
        <ele>3.4</ele>
        <time>2020-06-13T11:46:56Z</time>
      </trkpt>
      <trkpt lat="51.284321298923" lon="4.483954066644">
        <ele>3.6</ele>
        <time>2020-06-13T11:47:07Z</time>
      </trkpt>
      <trkpt lat="51.284346025528" lon="4.48381274781">
        <ele>3.4</ele>
        <time>2020-06-13T11:47:09Z</time>
      </trkpt>
      <trkpt lat="51.284115690916" lon="4.483618874463">
        <ele>4.2</ele>
        <time>2020-06-13T11:47:16Z</time>
      </trkpt>
      <trkpt lat="51.284025920767" lon="4.483705710947">
        <ele>5.8</ele>
        <time>2020-06-13T11:47:18Z</time>
      </trkpt>
      <trkpt lat="51.283670192931" lon="4.483981391638">
        <ele>3.4</ele>
        <time>2020-06-13T11:47:28Z</time>
      </trkpt>
      <trkpt lat="51.283221174548" lon="4.483483674416">
        <ele>4</ele>
        <time>2020-06-13T11:47:41Z</time>
      </trkpt>
      <trkpt lat="51.282863686513" lon="4.483038344069">
        <ele>0</ele>
        <time>2020-06-13T11:47:52Z</time>
      </trkpt>
      <trkpt lat="51.281619058182" lon="4.480580854808">
        <ele>0</ele>
        <time>2020-06-13T11:50:05Z</time>
      </trkpt>
      <trkpt lat="51.281861881825" lon="4.480261588237">
        <ele>0</ele>
        <time>2020-06-13T11:50:15Z</time>
      </trkpt>
      <trkpt lat="51.281422670265" lon="4.47967208921">
        <ele>0</ele>
        <time>2020-06-13T11:50:26Z</time>
      </trkpt>
      <trkpt lat="51.280977842832" lon="4.479154590704">
        <ele>0</ele>
        <time>2020-06-13T11:50:34Z</time>
      </trkpt>
      <trkpt lat="51.28049605122" lon="4.478582693667">
        <ele>0</ele>
        <time>2020-06-13T11:50:44Z</time>
      </trkpt>
      <trkpt lat="51.280063042266" lon="4.478043905135">
        <ele>3.4</ele>
        <time>2020-06-13T11:50:53Z</time>
      </trkpt>
      <trkpt lat="51.27962433362" lon="4.47750452987">
        <ele>5.6</ele>
        <time>2020-06-13T11:51:02Z</time>
      </trkpt>
      <trkpt lat="51.279151343003" lon="4.476941685285">
        <ele>3</ele>
        <time>2020-06-13T11:51:12Z</time>
      </trkpt>
      <trkpt lat="51.278663935518" lon="4.47635453319">
        <ele>2</ele>
        <time>2020-06-13T11:51:21Z</time>
      </trkpt>
      <trkpt lat="51.278203517751" lon="4.475825802938">
        <ele>3.4</ele>
        <time>2020-06-13T11:51:30Z</time>
      </trkpt>
      <trkpt lat="51.277754667006" lon="4.475336048521">
        <ele>4.4</ele>
        <time>2020-06-13T11:51:39Z</time>
      </trkpt>
      <trkpt lat="51.277288214271" lon="4.474790386831">
        <ele>4.2</ele>
        <time>2020-06-13T11:51:49Z</time>
      </trkpt>
      <trkpt lat="51.276836178404" lon="4.474216561957">
        <ele>4.8</ele>
        <time>2020-06-13T11:51:59Z</time>
      </trkpt>
      <trkpt lat="51.276371569687" lon="4.473680287995">
        <ele>5.4</ele>
        <time>2020-06-13T11:52:10Z</time>
      </trkpt>
      <trkpt lat="51.275902602382" lon="4.473140828911">
        <ele>3.2</ele>
        <time>2020-06-13T11:52:21Z</time>
      </trkpt>
      <trkpt lat="51.275462217356" lon="4.472634310694">
        <ele>0</ele>
        <time>2020-06-13T11:52:30Z</time>
      </trkpt>
      <trkpt lat="51.275011103498" lon="4.472086302072">
        <ele>0</ele>
        <time>2020-06-13T11:52:40Z</time>
      </trkpt>
      <trkpt lat="51.274574574146" lon="4.471566624272">
        <ele>0</ele>
        <time>2020-06-13T11:52:49Z</time>
      </trkpt>
      <trkpt lat="51.274125974858" lon="4.471033032518">
        <ele>0</ele>
        <time>2020-06-13T11:52:59Z</time>
      </trkpt>
      <trkpt lat="51.273651894594" lon="4.470522239532">
        <ele>0</ele>
        <time>2020-06-13T11:53:09Z</time>
      </trkpt>
      <trkpt lat="51.273220059106" lon="4.469992503452">
        <ele>0</ele>
        <time>2020-06-13T11:53:18Z</time>
      </trkpt>
      <trkpt lat="51.272760563348" lon="4.469431838161">
        <ele>0.2</ele>
        <time>2020-06-13T11:53:28Z</time>
      </trkpt>
      <trkpt lat="51.272296206088" lon="4.468882488435">
        <ele>0</ele>
        <time>2020-06-13T11:53:37Z</time>
      </trkpt>
      <trkpt lat="51.271822042005" lon="4.468322828972">
        <ele>0</ele>
        <time>2020-06-13T11:53:47Z</time>
      </trkpt>
      <trkpt lat="51.271362713885" lon="4.467807928855">
        <ele>0</ele>
        <time>2020-06-13T11:53:56Z</time>
      </trkpt>
      <trkpt lat="51.270884945585" lon="4.467242485881">
        <ele>0</ele>
        <time>2020-06-13T11:54:06Z</time>
      </trkpt>
      <trkpt lat="51.270433412632" lon="4.466683999884">
        <ele>0</ele>
        <time>2020-06-13T11:54:17Z</time>
      </trkpt>
      <trkpt lat="51.269969642105" lon="4.466132889959">
        <ele>0</ele>
        <time>2020-06-13T11:54:28Z</time>
      </trkpt>
      <trkpt lat="51.269484833009" lon="4.465594017608">
        <ele>0</ele>
        <time>2020-06-13T11:54:38Z</time>
      </trkpt>
      <trkpt lat="51.269035395531" lon="4.465053720334">
        <ele>2.4</ele>
        <time>2020-06-13T11:54:48Z</time>
      </trkpt>
      <trkpt lat="51.268715793684" lon="4.464715594488">
        <ele>2.2</ele>
        <time>2020-06-13T11:54:56Z</time>
      </trkpt>
      <trkpt lat="51.26858453313" lon="4.464615598421">
        <ele>0.6</ele>
        <time>2020-06-13T11:54:59Z</time>
      </trkpt>
      <trkpt lat="51.268320168004" lon="4.46427621529">
        <ele>0</ele>
        <time>2020-06-13T11:55:06Z</time>
      </trkpt>
      <trkpt lat="51.268182956301" lon="4.464109499299">
        <ele>0</ele>
        <time>2020-06-13T11:55:09Z</time>
      </trkpt>
      <trkpt lat="51.268110788142" lon="4.464042695556">
        <ele>0.2</ele>
        <time>2020-06-13T11:55:11Z</time>
      </trkpt>
      <trkpt lat="51.267886153222" lon="4.463812863858">
        <ele>0.8</ele>
        <time>2020-06-13T11:55:17Z</time>
      </trkpt>
      <trkpt lat="51.267704517449" lon="4.463546654714">
        <ele>0</ele>
        <time>2020-06-13T11:55:22Z</time>
      </trkpt>
      <trkpt lat="51.267305203733" lon="4.463206936307">
        <ele>3.2</ele>
        <time>2020-06-13T11:55:30Z</time>
      </trkpt>
      <trkpt lat="51.266792818186" lon="4.463156309631">
        <ele>5.8</ele>
        <time>2020-06-13T11:55:39Z</time>
      </trkpt>
      <trkpt lat="51.26669944382" lon="4.463171145594">
        <ele>3.8</ele>
        <time>2020-06-13T11:55:41Z</time>
      </trkpt>
      <trkpt lat="51.266562399755" lon="4.463252450024">
        <ele>2.4</ele>
        <time>2020-06-13T11:55:44Z</time>
      </trkpt>
      <trkpt lat="51.266000560998" lon="4.463344567105">
        <ele>0.8</ele>
        <time>2020-06-13T11:55:55Z</time>
      </trkpt>
      <trkpt lat="51.265432519635" lon="4.463441880964">
        <ele>0.8</ele>
        <time>2020-06-13T11:56:06Z</time>
      </trkpt>
      <trkpt lat="51.264947375263" lon="4.463560736306">
        <ele>6.8</ele>
        <time>2020-06-13T11:56:33Z</time>
      </trkpt>
      <trkpt lat="51.264391236198" lon="4.463693421783">
        <ele>5.2</ele>
        <time>2020-06-13T11:56:43Z</time>
      </trkpt>
      <trkpt lat="51.263848256716" lon="4.463786125597">
        <ele>4</ele>
        <time>2020-06-13T11:56:54Z</time>
      </trkpt>
      <trkpt lat="51.263285412131" lon="4.463916380323">
        <ele>2.8</ele>
        <time>2020-06-13T11:57:05Z</time>
      </trkpt>
      <trkpt lat="51.2630382299" lon="4.463965833533">
        <ele>2.2</ele>
        <time>2020-06-13T11:57:10Z</time>
      </trkpt>
      <trkpt lat="51.262961786972" lon="4.463921744739">
        <ele>2.8</ele>
        <time>2020-06-13T11:57:12Z</time>
      </trkpt>
      <trkpt lat="51.262443785552" lon="4.463925097499">
        <ele>0</ele>
        <time>2020-06-13T11:57:25Z</time>
      </trkpt>
      <trkpt lat="51.261860656769" lon="4.464052250922">
        <ele>0</ele>
        <time>2020-06-13T11:57:36Z</time>
      </trkpt>
      <trkpt lat="51.261312648147" lon="4.464145541469">
        <ele>1.4</ele>
        <time>2020-06-13T11:57:46Z</time>
      </trkpt>
      <trkpt lat="51.260741254024" lon="4.464265821734">
        <ele>3.8</ele>
        <time>2020-06-13T11:57:57Z</time>
      </trkpt>
      <trkpt lat="51.260168183521" lon="4.464281160611">
        <ele>2.6</ele>
        <time>2020-06-13T11:58:07Z</time>
      </trkpt>
      <trkpt lat="51.259833158978" lon="4.464298427325">
        <ele>1.6</ele>
        <time>2020-06-13T11:58:16Z</time>
      </trkpt>
      <trkpt lat="51.259300489233" lon="4.464024674471">
        <ele>0.8</ele>
        <time>2020-06-13T11:59:39Z</time>
      </trkpt>
      <trkpt lat="51.258792713731" lon="4.463626534221">
        <ele>1</ele>
        <time>2020-06-13T11:59:48Z</time>
      </trkpt>
      <trkpt lat="51.258348724488" lon="4.463099480349">
        <ele>0.6</ele>
        <time>2020-06-13T11:59:57Z</time>
      </trkpt>
      <trkpt lat="51.258250823896" lon="4.462994371323">
        <ele>0.4</ele>
        <time>2020-06-13T11:59:59Z</time>
      </trkpt>
      <trkpt lat="51.257750424466" lon="4.462574019038">
        <ele>1</ele>
        <time>2020-06-13T12:00:09Z</time>
      </trkpt>
      <trkpt lat="51.25765285915" lon="4.462540491438">
        <ele>0.8</ele>
        <time>2020-06-13T12:00:11Z</time>
      </trkpt>
      <trkpt lat="51.257551689617" lon="4.462529343511">
        <ele>0.8</ele>
        <time>2020-06-13T12:00:13Z</time>
      </trkpt>
      <trkpt lat="51.257472313024" lon="4.462329519015">
        <ele>0.4</ele>
        <time>2020-06-13T12:00:16Z</time>
      </trkpt>
      <trkpt lat="51.257396205372" lon="4.462225331998">
        <ele>0.6</ele>
        <time>2020-06-13T12:00:18Z</time>
      </trkpt>
      <trkpt lat="51.25693704489" lon="4.46175996891">
        <ele>0</ele>
        <time>2020-06-13T12:00:28Z</time>
      </trkpt>
      <trkpt lat="51.256465814472" lon="4.461336096227">
        <ele>0</ele>
        <time>2020-06-13T12:00:37Z</time>
      </trkpt>
      <trkpt lat="51.25597731734" lon="4.460893112812">
        <ele>0</ele>
        <time>2020-06-13T12:00:48Z</time>
      </trkpt>
      <trkpt lat="51.255500973963" lon="4.460478795495">
        <ele>0</ele>
        <time>2020-06-13T12:00:59Z</time>
      </trkpt>
      <trkpt lat="51.255005771311" lon="4.460104711298">
        <ele>2.8</ele>
        <time>2020-06-13T12:01:08Z</time>
      </trkpt>
      <trkpt lat="51.254508640822" lon="4.459682766452">
        <ele>6.4</ele>
        <time>2020-06-13T12:01:18Z</time>
      </trkpt>
      <trkpt lat="51.254212424476" lon="4.45945662279">
        <ele>5.8</ele>
        <time>2020-06-13T12:01:28Z</time>
      </trkpt>
      <trkpt lat="51.253864072712" lon="4.459016237764">
        <ele>1.4</ele>
        <time>2020-06-13T12:02:14Z</time>
      </trkpt>
      <trkpt lat="51.253783941748" lon="4.45894365051">
        <ele>1</ele>
        <time>2020-06-13T12:02:16Z</time>
      </trkpt>
      <trkpt lat="51.253279519006" lon="4.45848935153">
        <ele>2</ele>
        <time>2020-06-13T12:02:28Z</time>
      </trkpt>
      <trkpt lat="51.252996210786" lon="4.458167570389">
        <ele>3.8</ele>
        <time>2020-06-13T12:02:35Z</time>
      </trkpt>
      <trkpt lat="51.252907362646" lon="4.458094480221">
        <ele>4</ele>
        <time>2020-06-13T12:02:37Z</time>
      </trkpt>
      <trkpt lat="51.25241417165" lon="4.457572455489">
        <ele>1.8</ele>
        <time>2020-06-13T12:02:49Z</time>
      </trkpt>
      <trkpt lat="51.251913017849" lon="4.457124694391">
        <ele>1.6</ele>
        <time>2020-06-13T12:02:59Z</time>
      </trkpt>
      <trkpt lat="51.251411528772" lon="4.456680453691">
        <ele>0.2</ele>
        <time>2020-06-13T12:03:10Z</time>
      </trkpt>
      <trkpt lat="51.251317986768" lon="4.456617421803">
        <ele>0.6</ele>
        <time>2020-06-13T12:03:12Z</time>
      </trkpt>
      <trkpt lat="51.251226707877" lon="4.456554138458">
        <ele>0.8</ele>
        <time>2020-06-13T12:03:14Z</time>
      </trkpt>
      <trkpt lat="51.25074114441" lon="4.456024318559">
        <ele>3.2</ele>
        <time>2020-06-13T12:03:25Z</time>
      </trkpt>
      <trkpt lat="51.250256419133" lon="4.455622909368">
        <ele>2.2</ele>
        <time>2020-06-13T12:03:35Z</time>
      </trkpt>
      <trkpt lat="51.249782087412" lon="4.455177327564">
        <ele>0</ele>
        <time>2020-06-13T12:03:45Z</time>
      </trkpt>
      <trkpt lat="51.249491570758" lon="4.454866945807">
        <ele>1.6</ele>
        <time>2020-06-13T12:03:52Z</time>
      </trkpt>
      <trkpt lat="51.248972312053" lon="4.454402672366">
        <ele>2</ele>
        <time>2020-06-13T12:04:03Z</time>
      </trkpt>
      <trkpt lat="51.248470571519" lon="4.453951809965">
        <ele>4</ele>
        <time>2020-06-13T12:04:13Z</time>
      </trkpt>
      <trkpt lat="51.248003448232" lon="4.453477478244">
        <ele>1</ele>
        <time>2020-06-13T12:04:26Z</time>
      </trkpt>
      <trkpt lat="51.247916108834" lon="4.453464570118">
        <ele>25.2</ele>
        <time>2020-06-13T12:06:02Z</time>
      </trkpt>
      <trkpt lat="51.247765486091" lon="4.453258375378">
        <ele>23.6</ele>
        <time>2020-06-13T12:06:08Z</time>
      </trkpt>
      <trkpt lat="51.247404980572" lon="4.452616238019">
        <ele>18.6</ele>
        <time>2020-06-13T12:06:18Z</time>
      </trkpt>
      <trkpt lat="51.247097867756" lon="4.451844516486">
        <ele>12.4</ele>
        <time>2020-06-13T12:06:28Z</time>
      </trkpt>
      <trkpt lat="51.246792766596" lon="4.451042117199">
        <ele>8.2</ele>
        <time>2020-06-13T12:06:38Z</time>
      </trkpt>
      <trkpt lat="51.246475679319" lon="4.450293110615">
        <ele>3.8</ele>
        <time>2020-06-13T12:06:48Z</time>
      </trkpt>
      <trkpt lat="51.246239142101" lon="4.44979564485">
        <ele>3.2</ele>
        <time>2020-06-13T12:06:56Z</time>
      </trkpt>
      <trkpt lat="51.245906045395" lon="4.449067341559">
        <ele>4</ele>
        <time>2020-06-13T12:07:08Z</time>
      </trkpt>
      <trkpt lat="51.245734300264" lon="4.448654365346">
        <ele>2.8</ele>
        <time>2020-06-13T12:07:16Z</time>
      </trkpt>
      <trkpt lat="51.245210682971" lon="4.448913533694">
        <ele>0</ele>
        <time>2020-06-13T12:07:26Z</time>
      </trkpt>
      <trkpt lat="51.24464750311" lon="4.449190890765">
        <ele>0</ele>
        <time>2020-06-13T12:07:34Z</time>
      </trkpt>
      <trkpt lat="51.244118269944" lon="4.449492722984">
        <ele>2.8</ele>
        <time>2020-06-13T12:07:43Z</time>
      </trkpt>
      <trkpt lat="51.243609991528" lon="4.449945177946">
        <ele>0</ele>
        <time>2020-06-13T12:07:54Z</time>
      </trkpt>
      <trkpt lat="51.243082350923" lon="4.450236113695">
        <ele>0</ele>
        <time>2020-06-13T12:08:05Z</time>
      </trkpt>
      <trkpt lat="51.242589076108" lon="4.45059024897">
        <ele>0</ele>
        <time>2020-06-13T12:08:15Z</time>
      </trkpt>
      <trkpt lat="51.242460749219" lon="4.450681192585">
        <ele>0</ele>
        <time>2020-06-13T12:08:18Z</time>
      </trkpt>
      <trkpt lat="51.242266624415" lon="4.450597205947">
        <ele>0</ele>
        <time>2020-06-13T12:08:22Z</time>
      </trkpt>
      <trkpt lat="51.242142656114" lon="4.450580274509">
        <ele>5.2</ele>
        <time>2020-06-13T12:08:24Z</time>
      </trkpt>
      <trkpt lat="51.24204408497" lon="4.450636097963">
        <ele>7.2</ele>
        <time>2020-06-13T12:08:26Z</time>
      </trkpt>
      <trkpt lat="51.241780138939" lon="4.450942456408">
        <ele>7</ele>
        <time>2020-06-13T12:08:33Z</time>
      </trkpt>
      <trkpt lat="51.241277057301" lon="4.451379069579">
        <ele>3.2</ele>
        <time>2020-06-13T12:08:44Z</time>
      </trkpt>
      <trkpt lat="51.240784369219" lon="4.451749214283">
        <ele>3</ele>
        <time>2020-06-13T12:08:53Z</time>
      </trkpt>
      <trkpt lat="51.240273911509" lon="4.45210150554">
        <ele>2.6</ele>
        <time>2020-06-13T12:09:03Z</time>
      </trkpt>
      <trkpt lat="51.239746941456" lon="4.452531916105">
        <ele>2.4</ele>
        <time>2020-06-13T12:09:14Z</time>
      </trkpt>
      <trkpt lat="51.239252157899" lon="4.452928715251">
        <ele>2.4</ele>
        <time>2020-06-13T12:09:24Z</time>
      </trkpt>
      <trkpt lat="51.239158532076" lon="4.453002811247">
        <ele>2.6</ele>
        <time>2020-06-13T12:09:26Z</time>
      </trkpt>
      <trkpt lat="51.238670621677" lon="4.453331884641">
        <ele>4.4</ele>
        <time>2020-06-13T12:09:37Z</time>
      </trkpt>
      <trkpt lat="51.238150776239" lon="4.453714015462">
        <ele>7</ele>
        <time>2020-06-13T12:09:51Z</time>
      </trkpt>
      <trkpt lat="51.237638390692" lon="4.454040574286">
        <ele>6.6</ele>
        <time>2020-06-13T12:10:06Z</time>
      </trkpt>
      <trkpt lat="51.237139500004" lon="4.454377861942">
        <ele>5.4</ele>
        <time>2020-06-13T12:10:18Z</time>
      </trkpt>
      <trkpt lat="51.236629209932" lon="4.454680951446">
        <ele>3</ele>
        <time>2020-06-13T12:10:29Z</time>
      </trkpt>
      <trkpt lat="51.236111040874" lon="4.455021843319">
        <ele>1.6</ele>
        <time>2020-06-13T12:10:40Z</time>
      </trkpt>
      <trkpt lat="51.235610473806" lon="4.455382935571">
        <ele>0</ele>
        <time>2020-06-13T12:10:50Z</time>
      </trkpt>
      <trkpt lat="51.235089538721" lon="4.455790212092">
        <ele>0</ele>
        <time>2020-06-13T12:11:00Z</time>
      </trkpt>
      <trkpt lat="51.234570950568" lon="4.456216683164">
        <ele>0</ele>
        <time>2020-06-13T12:11:10Z</time>
      </trkpt>
      <trkpt lat="51.234064599989" lon="4.456603843125">
        <ele>0</ele>
        <time>2020-06-13T12:11:20Z</time>
      </trkpt>
      <trkpt lat="51.233528996579" lon="4.45698228591">
        <ele>0</ele>
        <time>2020-06-13T12:11:31Z</time>
      </trkpt>
      <trkpt lat="51.233020718163" lon="4.457283950491">
        <ele>0.6</ele>
        <time>2020-06-13T12:11:41Z</time>
      </trkpt>
      <trkpt lat="51.232803375496" lon="4.457340025402">
        <ele>0.4</ele>
        <time>2020-06-13T12:11:46Z</time>
      </trkpt>
      <trkpt lat="51.232677227901" lon="4.45729744535">
        <ele>1</ele>
        <time>2020-06-13T12:11:49Z</time>
      </trkpt>
      <trkpt lat="51.232425938539" lon="4.457032912586">
        <ele>0.4</ele>
        <time>2020-06-13T12:11:57Z</time>
      </trkpt>
      <trkpt lat="51.231948589334" lon="4.456628066816">
        <ele>1.6</ele>
        <time>2020-06-13T12:12:09Z</time>
      </trkpt>
      <trkpt lat="51.231443831316" lon="4.456228166367">
        <ele>7.2</ele>
        <time>2020-06-13T12:12:21Z</time>
      </trkpt>
      <trkpt lat="51.230983078273" lon="4.455893812376">
        <ele>6.8</ele>
        <time>2020-06-13T12:12:33Z</time>
      </trkpt>
      <trkpt lat="51.230944270076" lon="4.455983582525">
        <ele>6</ele>
        <time>2020-06-13T12:12:35Z</time>
      </trkpt>
      <trkpt lat="51.230881405826" lon="4.456153399819">
        <ele>5.4</ele>
        <time>2020-06-13T12:12:38Z</time>
      </trkpt>
      <trkpt lat="51.230804376165" lon="4.456214336232">
        <ele>4.2</ele>
        <time>2020-06-13T12:12:40Z</time>
      </trkpt>
      <trkpt lat="51.230721562993" lon="4.45624467871">
        <ele>3</ele>
        <time>2020-06-13T12:12:42Z</time>
      </trkpt>
      <trkpt lat="51.230156455295" lon="4.456436288944">
        <ele>0</ele>
        <time>2020-06-13T12:12:54Z</time>
      </trkpt>
      <trkpt lat="51.229582127507" lon="4.45659588032">
        <ele>0</ele>
        <time>2020-06-13T12:13:05Z</time>
      </trkpt>
      <trkpt lat="51.229468133667" lon="4.456752705669">
        <ele>1.4</ele>
        <time>2020-06-13T12:13:10Z</time>
      </trkpt>
      <trkpt lat="51.229423877235" lon="4.456842978732">
        <ele>8.8</ele>
        <time>2020-06-13T12:13:17Z</time>
      </trkpt>
      <trkpt lat="51.22888701654" lon="4.457086808203">
        <ele>13.2</ele>
        <time>2020-06-13T12:13:34Z</time>
      </trkpt>
      <trkpt lat="51.228430705904" lon="4.457339271031">
        <ele>4</ele>
        <time>2020-06-13T12:13:46Z</time>
      </trkpt>
      <trkpt lat="51.228510836868" lon="4.457963471124">
        <ele>0.6</ele>
        <time>2020-06-13T12:13:56Z</time>
      </trkpt>
    </trkseg>
  </trk>
</gpx>